<?xml version="1.0" encoding="UTF-8" standalone="no" ?>
<gpx xmlns="http://www.topografix.com/GPX/1/1" xmlns:xsi="http://www.w3.org/2001/XMLSchema-instance" xsi:schemaLocation="http://www.topografix.com/GPX/1/1 http://www.topografix.com/GPX/1/1/gpx.xsd" version="1.1" creator="VisuGPX - https://www.visugpx.com">
  <metadata>
    <name>pyrénées2000-col del pam</name>
  </metadata>
  <trk>
    <name><![CDATA[pyrénées2000-col del pam_1]]></name>
    <trkseg>
      <trkpt lat="42.52041" lon="2.0584">
        <ele>1780.7</ele>
        <time>2019-02-06T10:50:37</time>
      </trkpt>
      <trkpt lat="42.52034" lon="2.05821">
        <ele>1783.2</ele>
        <time>2019-02-06T10:50:44.947</time>
      </trkpt>
      <trkpt lat="42.5203" lon="2.0581">
        <ele>1784.4</ele>
        <time>2019-02-06T10:50:52.947</time>
      </trkpt>
      <trkpt lat="42.52026" lon="2.05803">
        <ele>1784.9</ele>
        <time>2019-02-06T10:51:00.947</time>
      </trkpt>
      <trkpt lat="42.52024" lon="2.05795">
        <ele>1783.84</ele>
        <time>2019-02-06T10:51:09.947</time>
      </trkpt>
      <trkpt lat="42.52021" lon="2.05789">
        <ele>1785.7</ele>
        <time>2019-02-06T10:51:17.947</time>
      </trkpt>
      <trkpt lat="42.52018" lon="2.05782">
        <ele>1787.4</ele>
        <time>2019-02-06T10:51:25.947</time>
      </trkpt>
      <trkpt lat="42.52008" lon="2.05766">
        <ele>1788.8</ele>
        <time>2019-02-06T10:51:33.990</time>
      </trkpt>
      <trkpt lat="42.52005" lon="2.0576">
        <ele>1790.38</ele>
        <time>2019-02-06T10:51:41.990</time>
      </trkpt>
      <trkpt lat="42.52001" lon="2.05753">
        <ele>1792</ele>
        <time>2019-02-06T10:51:49.990</time>
      </trkpt>
      <trkpt lat="42.51996" lon="2.05747">
        <ele>1792.86</ele>
        <time>2019-02-06T10:51:57.990</time>
      </trkpt>
      <trkpt lat="42.51992" lon="2.0574">
        <ele>1793.32</ele>
        <time>2019-02-06T10:52:05.990</time>
      </trkpt>
      <trkpt lat="42.51987" lon="2.05735">
        <ele>1794.26</ele>
        <time>2019-02-06T10:52:13.990</time>
      </trkpt>
      <trkpt lat="42.51983" lon="2.0573">
        <ele>1795.26</ele>
        <time>2019-02-06T10:52:21.990</time>
      </trkpt>
      <trkpt lat="42.51979" lon="2.05722">
        <ele>1796.06</ele>
        <time>2019-02-06T10:52:29.990</time>
      </trkpt>
      <trkpt lat="42.51975" lon="2.05716">
        <ele>1796.94</ele>
        <time>2019-02-06T10:52:37.990</time>
      </trkpt>
      <trkpt lat="42.51971" lon="2.05711">
        <ele>1798.16</ele>
        <time>2019-02-06T10:52:45.990</time>
      </trkpt>
      <trkpt lat="42.51967" lon="2.05704">
        <ele>1799.36</ele>
        <time>2019-02-06T10:52:53.990</time>
      </trkpt>
      <trkpt lat="42.51963" lon="2.05696">
        <ele>1800.72</ele>
        <time>2019-02-06T10:53:01.990</time>
      </trkpt>
      <trkpt lat="42.51959" lon="2.0569">
        <ele>1802.52</ele>
        <time>2019-02-06T10:53:09.990</time>
      </trkpt>
      <trkpt lat="42.51956" lon="2.05684">
        <ele>1803.48</ele>
        <time>2019-02-06T10:53:17.990</time>
      </trkpt>
      <trkpt lat="42.51949" lon="2.05671">
        <ele>1804.82</ele>
        <time>2019-02-06T10:53:25.983</time>
      </trkpt>
      <trkpt lat="42.51948" lon="2.05663">
        <ele>1806.28</ele>
        <time>2019-02-06T10:53:33.983</time>
      </trkpt>
      <trkpt lat="42.51948" lon="2.05655">
        <ele>1807.48</ele>
        <time>2019-02-06T10:53:41.983</time>
      </trkpt>
      <trkpt lat="42.51952" lon="2.05647">
        <ele>1808.86</ele>
        <time>2019-02-06T10:53:49.983</time>
      </trkpt>
      <trkpt lat="42.5195" lon="2.05632">
        <ele>1809.04</ele>
        <time>2019-02-06T10:53:58.2</time>
      </trkpt>
      <trkpt lat="42.51948" lon="2.05633">
        <ele>1809.14</ele>
        <time>2019-02-06T10:54:06.2</time>
      </trkpt>
      <trkpt lat="42.5194" lon="2.05608">
        <ele>1809.34</ele>
        <time>2019-02-06T10:54:13.996</time>
      </trkpt>
      <trkpt lat="42.51937" lon="2.05597">
        <ele>1809.28</ele>
        <time>2019-02-06T10:54:22.996</time>
      </trkpt>
      <trkpt lat="42.51932" lon="2.05588">
        <ele>1808.64</ele>
        <time>2019-02-06T10:54:30.996</time>
      </trkpt>
      <trkpt lat="42.51929" lon="2.0558">
        <ele>1809.94</ele>
        <time>2019-02-06T10:54:38.996</time>
      </trkpt>
      <trkpt lat="42.51926" lon="2.05573">
        <ele>1810.58</ele>
        <time>2019-02-06T10:54:46.996</time>
      </trkpt>
      <trkpt lat="42.51923" lon="2.05567">
        <ele>1810</ele>
        <time>2019-02-06T10:54:54.996</time>
      </trkpt>
      <trkpt lat="42.51923" lon="2.05559">
        <ele>1809.34</ele>
        <time>2019-02-06T10:55:02.996</time>
      </trkpt>
      <trkpt lat="42.51927" lon="2.05549">
        <ele>1808.72</ele>
        <time>2019-02-06T10:55:10.996</time>
      </trkpt>
      <trkpt lat="42.51921" lon="2.0555">
        <ele>1807.88</ele>
        <time>2019-02-06T10:55:18.996</time>
      </trkpt>
      <trkpt lat="42.51944" lon="2.05517">
        <ele>1807.38</ele>
        <time>2019-02-06T10:55:27.43</time>
      </trkpt>
      <trkpt lat="42.51948" lon="2.05511">
        <ele>1808.12</ele>
        <time>2019-02-06T10:55:35.43</time>
      </trkpt>
      <trkpt lat="42.51977" lon="2.05485">
        <ele>1809.68</ele>
        <time>2019-02-06T10:55:42.740</time>
      </trkpt>
      <trkpt lat="42.51982" lon="2.05479">
        <ele>1811.06</ele>
        <time>2019-02-06T10:55:50.740</time>
      </trkpt>
      <trkpt lat="42.51989" lon="2.05473">
        <ele>1812.52</ele>
        <time>2019-02-06T10:56:00.740</time>
      </trkpt>
      <trkpt lat="42.51994" lon="2.05467">
        <ele>1813.48</ele>
        <time>2019-02-06T10:56:08.740</time>
      </trkpt>
      <trkpt lat="42.52001" lon="2.05461">
        <ele>1813.8</ele>
        <time>2019-02-06T10:56:17.740</time>
      </trkpt>
      <trkpt lat="42.52004" lon="2.05457">
        <ele>1813.7</ele>
        <time>2019-02-06T10:56:25.740</time>
      </trkpt>
      <trkpt lat="42.52009" lon="2.05453">
        <ele>1813.66</ele>
        <time>2019-02-06T10:56:33.740</time>
      </trkpt>
      <trkpt lat="42.52023" lon="2.05434">
        <ele>1813.3</ele>
        <time>2019-02-06T10:56:42.257</time>
      </trkpt>
      <trkpt lat="42.52027" lon="2.05428">
        <ele>1813</ele>
        <time>2019-02-06T10:56:50.257</time>
      </trkpt>
      <trkpt lat="42.52032" lon="2.05423">
        <ele>1812.9</ele>
        <time>2019-02-06T10:56:58.257</time>
      </trkpt>
      <trkpt lat="42.52038" lon="2.05417">
        <ele>1812.1</ele>
        <time>2019-02-06T10:57:06.257</time>
      </trkpt>
      <trkpt lat="42.52043" lon="2.05411">
        <ele>1811.5</ele>
        <time>2019-02-06T10:57:14.257</time>
      </trkpt>
      <trkpt lat="42.52047" lon="2.05403">
        <ele>1811.32</ele>
        <time>2019-02-06T10:57:22.257</time>
      </trkpt>
      <trkpt lat="42.52055" lon="2.05396">
        <ele>1810.68</ele>
        <time>2019-02-06T10:57:30.138</time>
      </trkpt>
      <trkpt lat="42.52061" lon="2.0539">
        <ele>1810.04</ele>
        <time>2019-02-06T10:57:38.138</time>
      </trkpt>
      <trkpt lat="42.5207" lon="2.05383">
        <ele>1810.06</ele>
        <time>2019-02-06T10:57:46.161</time>
      </trkpt>
      <trkpt lat="42.52076" lon="2.05376">
        <ele>1810.2</ele>
        <time>2019-02-06T10:57:54.161</time>
      </trkpt>
      <trkpt lat="42.52081" lon="2.05369">
        <ele>1810.48</ele>
        <time>2019-02-06T10:58:02.161</time>
      </trkpt>
      <trkpt lat="42.52085" lon="2.0536">
        <ele>1811.5</ele>
        <time>2019-02-06T10:58:10.161</time>
      </trkpt>
      <trkpt lat="42.52093" lon="2.0535">
        <ele>1812.2</ele>
        <time>2019-02-06T10:58:22.161</time>
      </trkpt>
      <trkpt lat="42.52094" lon="2.0535">
        <ele>1812.02</ele>
        <time>2019-02-06T10:58:30.161</time>
      </trkpt>
      <trkpt lat="42.52105" lon="2.05334">
        <ele>1811.78</ele>
        <time>2019-02-06T10:58:38.269</time>
      </trkpt>
      <trkpt lat="42.52113" lon="2.05327">
        <ele>1811.24</ele>
        <time>2019-02-06T10:58:46.269</time>
      </trkpt>
      <trkpt lat="42.5212" lon="2.05318">
        <ele>1810.92</ele>
        <time>2019-02-06T10:58:56.269</time>
      </trkpt>
      <trkpt lat="42.52125" lon="2.05311">
        <ele>1811.16</ele>
        <time>2019-02-06T10:59:04.269</time>
      </trkpt>
      <trkpt lat="42.52129" lon="2.05306">
        <ele>1812.02</ele>
        <time>2019-02-06T10:59:12.269</time>
      </trkpt>
      <trkpt lat="42.52135" lon="2.05301">
        <ele>1812.74</ele>
        <time>2019-02-06T10:59:20.269</time>
      </trkpt>
      <trkpt lat="42.5214" lon="2.05296">
        <ele>1813.48</ele>
        <time>2019-02-06T10:59:28.269</time>
      </trkpt>
      <trkpt lat="42.52143" lon="2.0529">
        <ele>1813.78</ele>
        <time>2019-02-06T10:59:36.269</time>
      </trkpt>
      <trkpt lat="42.52148" lon="2.05285">
        <ele>1813.48</ele>
        <time>2019-02-06T10:59:44.269</time>
      </trkpt>
      <trkpt lat="42.52154" lon="2.05281">
        <ele>1813.08</ele>
        <time>2019-02-06T10:59:52.269</time>
      </trkpt>
      <trkpt lat="42.52159" lon="2.05279">
        <ele>1812.98</ele>
        <time>2019-02-06T11:00:00.269</time>
      </trkpt>
      <trkpt lat="42.52202" lon="2.05242">
        <ele>1813.98</ele>
        <time>2019-02-06T11:00:08.384</time>
      </trkpt>
      <trkpt lat="42.52206" lon="2.05238">
        <ele>1815.62</ele>
        <time>2019-02-06T11:00:16.384</time>
      </trkpt>
      <trkpt lat="42.52249" lon="2.05229">
        <ele>1819.14</ele>
        <time>2019-02-06T11:00:25.517</time>
      </trkpt>
      <trkpt lat="42.52254" lon="2.05222">
        <ele>1822.94</ele>
        <time>2019-02-06T11:00:33.517</time>
      </trkpt>
      <trkpt lat="42.52281" lon="2.05208">
        <ele>1827.14</ele>
        <time>2019-02-06T11:00:41.474</time>
      </trkpt>
      <trkpt lat="42.52281" lon="2.05205">
        <ele>1830.44</ele>
        <time>2019-02-06T11:00:49.474</time>
      </trkpt>
      <trkpt lat="42.52354" lon="2.05143">
        <ele>1837.08</ele>
        <time>2019-02-06T11:00:57.480</time>
      </trkpt>
      <trkpt lat="42.52358" lon="2.05137">
        <ele>1841.96</ele>
        <time>2019-02-06T11:01:05.480</time>
      </trkpt>
      <trkpt lat="42.52364" lon="2.05132">
        <ele>1846.78</ele>
        <time>2019-02-06T11:01:13.480</time>
      </trkpt>
      <trkpt lat="42.52368" lon="2.05127">
        <ele>1850.42</ele>
        <time>2019-02-06T11:01:21.480</time>
      </trkpt>
      <trkpt lat="42.52371" lon="2.05121">
        <ele>1853.54</ele>
        <time>2019-02-06T11:01:29.480</time>
      </trkpt>
      <trkpt lat="42.52425" lon="2.05081">
        <ele>1856.14</ele>
        <time>2019-02-06T11:01:38.607</time>
      </trkpt>
      <trkpt lat="42.52426" lon="2.05079">
        <ele>1858.5</ele>
        <time>2019-02-06T11:01:46.607</time>
      </trkpt>
      <trkpt lat="42.52492" lon="2.05075">
        <ele>1864.78</ele>
        <time>2019-02-06T11:01:54.305</time>
      </trkpt>
      <trkpt lat="42.52499" lon="2.05076">
        <ele>1870.76</ele>
        <time>2019-02-06T11:02:02.305</time>
      </trkpt>
      <trkpt lat="42.52516" lon="2.05078">
        <ele>1878.14</ele>
        <time>2019-02-06T11:02:10.364</time>
      </trkpt>
      <trkpt lat="42.52521" lon="2.05081">
        <ele>1882.28</ele>
        <time>2019-02-06T11:02:18.364</time>
      </trkpt>
      <trkpt lat="42.52548" lon="2.05093">
        <ele>1888</ele>
        <time>2019-02-06T11:02:26.368</time>
      </trkpt>
      <trkpt lat="42.52553" lon="2.05097">
        <ele>1890.08</ele>
        <time>2019-02-06T11:02:34.368</time>
      </trkpt>
      <trkpt lat="42.52563" lon="2.05103">
        <ele>1892.98</ele>
        <time>2019-02-06T11:02:42.460</time>
      </trkpt>
      <trkpt lat="42.52568" lon="2.05109">
        <ele>1894.46</ele>
        <time>2019-02-06T11:02:50.460</time>
      </trkpt>
      <trkpt lat="42.52573" lon="2.05113">
        <ele>1895.68</ele>
        <time>2019-02-06T11:02:58.460</time>
      </trkpt>
      <trkpt lat="42.52584" lon="2.05118">
        <ele>1895.78</ele>
        <time>2019-02-06T11:03:06.513</time>
      </trkpt>
      <trkpt lat="42.52589" lon="2.05118">
        <ele>1895.3</ele>
        <time>2019-02-06T11:03:14.513</time>
      </trkpt>
      <trkpt lat="42.52608" lon="2.05111">
        <ele>1894.98</ele>
        <time>2019-02-06T11:03:22.313</time>
      </trkpt>
      <trkpt lat="42.52612" lon="2.05112">
        <ele>1895.48</ele>
        <time>2019-02-06T11:03:30.313</time>
      </trkpt>
      <trkpt lat="42.52651" lon="2.05094">
        <ele>1898.42</ele>
        <time>2019-02-06T11:03:37.324</time>
      </trkpt>
      <trkpt lat="42.52655" lon="2.05089">
        <ele>1900.92</ele>
        <time>2019-02-06T11:03:45.324</time>
      </trkpt>
      <trkpt lat="42.52694" lon="2.05064">
        <ele>1905.72</ele>
        <time>2019-02-06T11:03:52.963</time>
      </trkpt>
      <trkpt lat="42.52702" lon="2.05065">
        <ele>1910.42</ele>
        <time>2019-02-06T11:04:00.963</time>
      </trkpt>
      <trkpt lat="42.52708" lon="2.05063">
        <ele>1914.98</ele>
        <time>2019-02-06T11:04:08.963</time>
      </trkpt>
      <trkpt lat="42.52712" lon="2.05054">
        <ele>1917.38</ele>
        <time>2019-02-06T11:04:16.963</time>
      </trkpt>
      <trkpt lat="42.52714" lon="2.0505">
        <ele>1919.78</ele>
        <time>2019-02-06T11:04:24.963</time>
      </trkpt>
      <trkpt lat="42.52731" lon="2.05031">
        <ele>1919.88</ele>
        <time>2019-02-06T11:04:33.46</time>
      </trkpt>
      <trkpt lat="42.52734" lon="2.05025">
        <ele>1920.36</ele>
        <time>2019-02-06T11:04:41.46</time>
      </trkpt>
      <trkpt lat="42.5274" lon="2.05021">
        <ele>1920.68</ele>
        <time>2019-02-06T11:04:49.46</time>
      </trkpt>
      <trkpt lat="42.5278" lon="2.05027">
        <ele>1921.84</ele>
        <time>2019-02-06T11:04:57.24</time>
      </trkpt>
      <trkpt lat="42.52788" lon="2.05027">
        <ele>1923.42</ele>
        <time>2019-02-06T11:05:05.24</time>
      </trkpt>
      <trkpt lat="42.52809" lon="2.05025">
        <ele>1924.62</ele>
        <time>2019-02-06T11:05:13.156</time>
      </trkpt>
      <trkpt lat="42.52814" lon="2.05029">
        <ele>1924.7</ele>
        <time>2019-02-06T11:05:21.156</time>
      </trkpt>
      <trkpt lat="42.52825" lon="2.05036">
        <ele>1924.92</ele>
        <time>2019-02-06T11:05:28.881</time>
      </trkpt>
      <trkpt lat="42.52831" lon="2.05039">
        <ele>1924.56</ele>
        <time>2019-02-06T11:05:36.881</time>
      </trkpt>
      <trkpt lat="42.52837" lon="2.05038">
        <ele>1924.54</ele>
        <time>2019-02-06T11:05:44.881</time>
      </trkpt>
      <trkpt lat="42.52843" lon="2.05037">
        <ele>1924.92</ele>
        <time>2019-02-06T11:05:52.881</time>
      </trkpt>
      <trkpt lat="42.52876" lon="2.05011">
        <ele>1927</ele>
        <time>2019-02-06T11:06:00.809</time>
      </trkpt>
      <trkpt lat="42.52877" lon="2.0501">
        <ele>1929.14</ele>
        <time>2019-02-06T11:06:08.809</time>
      </trkpt>
      <trkpt lat="42.52884" lon="2.04997">
        <ele>1930.78</ele>
        <time>2019-02-06T11:06:17.950</time>
      </trkpt>
      <trkpt lat="42.52889" lon="2.04991">
        <ele>1931.36</ele>
        <time>2019-02-06T11:06:26.950</time>
      </trkpt>
      <trkpt lat="42.52893" lon="2.04984">
        <ele>1932.98</ele>
        <time>2019-02-06T11:06:34.950</time>
      </trkpt>
      <trkpt lat="42.52897" lon="2.04978">
        <ele>1933.4</ele>
        <time>2019-02-06T11:06:42.950</time>
      </trkpt>
      <trkpt lat="42.52909" lon="2.04965">
        <ele>1934.48</ele>
        <time>2019-02-06T11:06:50.843</time>
      </trkpt>
      <trkpt lat="42.52913" lon="2.0496">
        <ele>1935.68</ele>
        <time>2019-02-06T11:06:58.843</time>
      </trkpt>
      <trkpt lat="42.52991" lon="2.04854">
        <ele>1942.8</ele>
        <time>2019-02-06T11:07:08.12</time>
      </trkpt>
      <trkpt lat="42.52996" lon="2.0485">
        <ele>1949.92</ele>
        <time>2019-02-06T11:07:16.12</time>
      </trkpt>
      <trkpt lat="42.53004" lon="2.04833">
        <ele>1959.7</ele>
        <time>2019-02-06T11:07:23.791</time>
      </trkpt>
      <trkpt lat="42.53011" lon="2.04828">
        <ele>1968.36</ele>
        <time>2019-02-06T11:07:31.791</time>
      </trkpt>
      <trkpt lat="42.53016" lon="2.04822">
        <ele>1976.86</ele>
        <time>2019-02-06T11:07:39.791</time>
      </trkpt>
      <trkpt lat="42.53021" lon="2.04816">
        <ele>1978.64</ele>
        <time>2019-02-06T11:07:47.791</time>
      </trkpt>
      <trkpt lat="42.53047" lon="2.04774">
        <ele>1980.26</ele>
        <time>2019-02-06T11:07:55.616</time>
      </trkpt>
      <trkpt lat="42.5305" lon="2.0477">
        <ele>1979.04</ele>
        <time>2019-02-06T11:08:03.616</time>
      </trkpt>
      <trkpt lat="42.53065" lon="2.04754">
        <ele>1978.84</ele>
        <time>2019-02-06T11:08:12.666</time>
      </trkpt>
      <trkpt lat="42.53068" lon="2.04746">
        <ele>1978.48</ele>
        <time>2019-02-06T11:08:20.666</time>
      </trkpt>
      <trkpt lat="42.53072" lon="2.0474">
        <ele>1979.5</ele>
        <time>2019-02-06T11:08:28.666</time>
      </trkpt>
      <trkpt lat="42.53076" lon="2.04734">
        <ele>1979.24</ele>
        <time>2019-02-06T11:08:36.666</time>
      </trkpt>
      <trkpt lat="42.53082" lon="2.04724">
        <ele>1979.88</ele>
        <time>2019-02-06T11:08:45.666</time>
      </trkpt>
      <trkpt lat="42.53087" lon="2.04717">
        <ele>1979.64</ele>
        <time>2019-02-06T11:08:53.666</time>
      </trkpt>
      <trkpt lat="42.53093" lon="2.04711">
        <ele>1979.72</ele>
        <time>2019-02-06T11:09:01.666</time>
      </trkpt>
      <trkpt lat="42.53098" lon="2.04706">
        <ele>1979.76</ele>
        <time>2019-02-06T11:09:09.666</time>
      </trkpt>
      <trkpt lat="42.53101" lon="2.04702">
        <ele>1980.54</ele>
        <time>2019-02-06T11:09:17.666</time>
      </trkpt>
      <trkpt lat="42.53127" lon="2.04671">
        <ele>1984.46</ele>
        <time>2019-02-06T11:09:25.688</time>
      </trkpt>
      <trkpt lat="42.53129" lon="2.04671">
        <ele>1988.82</ele>
        <time>2019-02-06T11:09:33.688</time>
      </trkpt>
      <trkpt lat="42.53123" lon="2.04671">
        <ele>1991.54</ele>
        <time>2019-02-06T11:09:41.744</time>
      </trkpt>
      <trkpt lat="42.53121" lon="2.0467">
        <ele>1994.06</ele>
        <time>2019-02-06T11:09:49.744</time>
      </trkpt>
      <trkpt lat="42.53154" lon="2.04631">
        <ele>1995.06</ele>
        <time>2019-02-06T11:09:57.764</time>
      </trkpt>
      <trkpt lat="42.53158" lon="2.04627">
        <ele>1992.24</ele>
        <time>2019-02-06T11:10:05.764</time>
      </trkpt>
      <trkpt lat="42.53195" lon="2.04576">
        <ele>1989.48</ele>
        <time>2019-02-06T11:10:13.834</time>
      </trkpt>
      <trkpt lat="42.53199" lon="2.04569">
        <ele>1988.24</ele>
        <time>2019-02-06T11:10:21.834</time>
      </trkpt>
      <trkpt lat="42.53248" lon="2.04526">
        <ele>1989.66</ele>
        <time>2019-02-06T11:10:29.640</time>
      </trkpt>
      <trkpt lat="42.53249" lon="2.04524">
        <ele>1992.38</ele>
        <time>2019-02-06T11:10:37.640</time>
      </trkpt>
      <trkpt lat="42.53298" lon="2.04446">
        <ele>1994.34</ele>
        <time>2019-02-06T11:10:45.759</time>
      </trkpt>
      <trkpt lat="42.53302" lon="2.04439">
        <ele>1995.74</ele>
        <time>2019-02-06T11:10:53.759</time>
      </trkpt>
      <trkpt lat="42.53309" lon="2.0443">
        <ele>1997.42</ele>
        <time>2019-02-06T11:11:02.759</time>
      </trkpt>
      <trkpt lat="42.53313" lon="2.04424">
        <ele>1996.32</ele>
        <time>2019-02-06T11:11:10.759</time>
      </trkpt>
      <trkpt lat="42.5332" lon="2.04422">
        <ele>1995.72</ele>
        <time>2019-02-06T11:11:22.759</time>
      </trkpt>
      <trkpt lat="42.5336" lon="2.04399">
        <ele>1995.7</ele>
        <time>2019-02-06T11:11:30.686</time>
      </trkpt>
      <trkpt lat="42.53366" lon="2.04393">
        <ele>1995.9</ele>
        <time>2019-02-06T11:11:38.686</time>
      </trkpt>
      <trkpt lat="42.53372" lon="2.04392">
        <ele>1995.9</ele>
        <time>2019-02-06T11:11:46.686</time>
      </trkpt>
      <trkpt lat="42.53378" lon="2.04389">
        <ele>1996.6</ele>
        <time>2019-02-06T11:11:54.686</time>
      </trkpt>
      <trkpt lat="42.53384" lon="2.04383">
        <ele>1997.6</ele>
        <time>2019-02-06T11:12:03.686</time>
      </trkpt>
      <trkpt lat="42.5339" lon="2.04377">
        <ele>1998.9</ele>
        <time>2019-02-06T11:12:11.686</time>
      </trkpt>
      <trkpt lat="42.53393" lon="2.0437">
        <ele>1999.56</ele>
        <time>2019-02-06T11:12:19.686</time>
      </trkpt>
      <trkpt lat="42.53399" lon="2.04364">
        <ele>2000.8</ele>
        <time>2019-02-06T11:12:27.686</time>
      </trkpt>
      <trkpt lat="42.53404" lon="2.04358">
        <ele>2001.98</ele>
        <time>2019-02-06T11:12:35.686</time>
      </trkpt>
      <trkpt lat="42.53407" lon="2.04351">
        <ele>2002.48</ele>
        <time>2019-02-06T11:12:44.686</time>
      </trkpt>
      <trkpt lat="42.53423" lon="2.0436">
        <ele>2003.22</ele>
        <time>2019-02-06T11:12:52.689</time>
      </trkpt>
      <trkpt lat="42.53427" lon="2.0436">
        <ele>2004.4</ele>
        <time>2019-02-06T11:13:00.689</time>
      </trkpt>
      <trkpt lat="42.53421" lon="2.04384">
        <ele>2004.14</ele>
        <time>2019-02-06T11:13:08.651</time>
      </trkpt>
      <trkpt lat="42.53421" lon="2.04387">
        <ele>2003.94</ele>
        <time>2019-02-06T11:13:16.651</time>
      </trkpt>
      <trkpt lat="42.53413" lon="2.04375">
        <ele>2005.02</ele>
        <time>2019-02-06T11:13:25.771</time>
      </trkpt>
      <trkpt lat="42.5341" lon="2.04369">
        <ele>2005.42</ele>
        <time>2019-02-06T11:13:33.771</time>
      </trkpt>
      <trkpt lat="42.53397" lon="2.04313">
        <ele>2005.58</ele>
        <time>2019-02-06T11:13:41.862</time>
      </trkpt>
      <trkpt lat="42.5339" lon="2.04309">
        <ele>2006.78</ele>
        <time>2019-02-06T11:13:49.862</time>
      </trkpt>
      <trkpt lat="42.53384" lon="2.04311">
        <ele>2007.68</ele>
        <time>2019-02-06T11:13:57.862</time>
      </trkpt>
      <trkpt lat="42.53377" lon="2.04313">
        <ele>2007.2</ele>
        <time>2019-02-06T11:14:05.862</time>
      </trkpt>
      <trkpt lat="42.53373" lon="2.04315">
        <ele>2006.74</ele>
        <time>2019-02-06T11:14:13.862</time>
      </trkpt>
      <trkpt lat="42.53366" lon="2.04318">
        <ele>2006.48</ele>
        <time>2019-02-06T11:14:21.862</time>
      </trkpt>
      <trkpt lat="42.53359" lon="2.04318">
        <ele>2005.96</ele>
        <time>2019-02-06T11:14:30.862</time>
      </trkpt>
      <trkpt lat="42.53338" lon="2.0438">
        <ele>2004.44</ele>
        <time>2019-02-06T11:14:38.790</time>
      </trkpt>
      <trkpt lat="42.53333" lon="2.04386">
        <ele>2002.92</ele>
        <time>2019-02-06T11:14:46.790</time>
      </trkpt>
      <trkpt lat="42.53307" lon="2.04432">
        <ele>2001.9</ele>
        <time>2019-02-06T11:14:58.727</time>
      </trkpt>
      <trkpt lat="42.53301" lon="2.0444">
        <ele>2000.86</ele>
        <time>2019-02-06T11:15:06.727</time>
      </trkpt>
      <trkpt lat="42.53297" lon="2.04448">
        <ele>1999.9</ele>
        <time>2019-02-06T11:15:14.727</time>
      </trkpt>
      <trkpt lat="42.53293" lon="2.04453">
        <ele>2000.02</ele>
        <time>2019-02-06T11:15:22.727</time>
      </trkpt>
      <trkpt lat="42.5329" lon="2.04459">
        <ele>2000.22</ele>
        <time>2019-02-06T11:15:30.727</time>
      </trkpt>
      <trkpt lat="42.53278" lon="2.04474">
        <ele>2001.5</ele>
        <time>2019-02-06T11:15:38.497</time>
      </trkpt>
      <trkpt lat="42.53274" lon="2.0448">
        <ele>2002.78</ele>
        <time>2019-02-06T11:15:46.497</time>
      </trkpt>
      <trkpt lat="42.53261" lon="2.04497">
        <ele>2004.08</ele>
        <time>2019-02-06T11:15:54.362</time>
      </trkpt>
      <trkpt lat="42.53257" lon="2.04503">
        <ele>2005.2</ele>
        <time>2019-02-06T11:16:02.362</time>
      </trkpt>
      <trkpt lat="42.53196" lon="2.04571">
        <ele>2004.72</ele>
        <time>2019-02-06T11:16:10.380</time>
      </trkpt>
      <trkpt lat="42.53192" lon="2.04577">
        <ele>2002.72</ele>
        <time>2019-02-06T11:16:18.380</time>
      </trkpt>
      <trkpt lat="42.53091" lon="2.04708">
        <ele>1998.3</ele>
        <time>2019-02-06T11:16:26.306</time>
      </trkpt>
      <trkpt lat="42.53086" lon="2.04713">
        <ele>1993.72</ele>
        <time>2019-02-06T11:16:35.306</time>
      </trkpt>
      <trkpt lat="42.53064" lon="2.04747">
        <ele>1988.84</ele>
        <time>2019-02-06T11:16:43.336</time>
      </trkpt>
      <trkpt lat="42.5306" lon="2.04751">
        <ele>1985.68</ele>
        <time>2019-02-06T11:16:51.336</time>
      </trkpt>
      <trkpt lat="42.53007" lon="2.04826">
        <ele>1980.7</ele>
        <time>2019-02-06T11:16:59.343</time>
      </trkpt>
      <trkpt lat="42.53002" lon="2.04833">
        <ele>1977.9</ele>
        <time>2019-02-06T11:17:08.343</time>
      </trkpt>
      <trkpt lat="42.52994" lon="2.04845">
        <ele>1974.98</ele>
        <time>2019-02-06T11:17:16.342</time>
      </trkpt>
      <trkpt lat="42.52989" lon="2.04851">
        <ele>1972.1</ele>
        <time>2019-02-06T11:17:24.342</time>
      </trkpt>
      <trkpt lat="42.52985" lon="2.04857">
        <ele>1968.7</ele>
        <time>2019-02-06T11:17:32.342</time>
      </trkpt>
      <trkpt lat="42.5298" lon="2.04862">
        <ele>1967.14</ele>
        <time>2019-02-06T11:17:40.342</time>
      </trkpt>
      <trkpt lat="42.52976" lon="2.04869">
        <ele>1965.8</ele>
        <time>2019-02-06T11:17:48.342</time>
      </trkpt>
      <trkpt lat="42.5297" lon="2.04875">
        <ele>1964.48</ele>
        <time>2019-02-06T11:17:56.342</time>
      </trkpt>
      <trkpt lat="42.52966" lon="2.04882">
        <ele>1962.8</ele>
        <time>2019-02-06T11:18:04.342</time>
      </trkpt>
      <trkpt lat="42.52962" lon="2.04888">
        <ele>1961.46</ele>
        <time>2019-02-06T11:18:12.342</time>
      </trkpt>
      <trkpt lat="42.52959" lon="2.04893">
        <ele>1959.92</ele>
        <time>2019-02-06T11:18:20.342</time>
      </trkpt>
      <trkpt lat="42.5295" lon="2.04902">
        <ele>1957.82</ele>
        <time>2019-02-06T11:18:29.640</time>
      </trkpt>
      <trkpt lat="42.52948" lon="2.04905">
        <ele>1955.9</ele>
        <time>2019-02-06T11:18:37.640</time>
      </trkpt>
      <trkpt lat="42.52937" lon="2.04919">
        <ele>1954.24</ele>
        <time>2019-02-06T11:18:45.597</time>
      </trkpt>
      <trkpt lat="42.52932" lon="2.04925">
        <ele>1952.4</ele>
        <time>2019-02-06T11:18:53.597</time>
      </trkpt>
      <trkpt lat="42.52926" lon="2.04931">
        <ele>1950.76</ele>
        <time>2019-02-06T11:19:01.597</time>
      </trkpt>
      <trkpt lat="42.5292" lon="2.04938">
        <ele>1949.86</ele>
        <time>2019-02-06T11:19:09.597</time>
      </trkpt>
      <trkpt lat="42.52915" lon="2.04945">
        <ele>1948.66</ele>
        <time>2019-02-06T11:19:17.597</time>
      </trkpt>
      <trkpt lat="42.52909" lon="2.04951">
        <ele>1947.62</ele>
        <time>2019-02-06T11:19:25.597</time>
      </trkpt>
      <trkpt lat="42.52905" lon="2.04956">
        <ele>1946.24</ele>
        <time>2019-02-06T11:19:33.597</time>
      </trkpt>
      <trkpt lat="42.52902" lon="2.04959">
        <ele>1945.04</ele>
        <time>2019-02-06T11:19:41.597</time>
      </trkpt>
      <trkpt lat="42.52897" lon="2.04966">
        <ele>1943.68</ele>
        <time>2019-02-06T11:19:49.597</time>
      </trkpt>
      <trkpt lat="42.52891" lon="2.04972">
        <ele>1942.68</ele>
        <time>2019-02-06T11:19:57.597</time>
      </trkpt>
      <trkpt lat="42.52885" lon="2.04979">
        <ele>1941.64</ele>
        <time>2019-02-06T11:20:05.597</time>
      </trkpt>
      <trkpt lat="42.52881" lon="2.04989">
        <ele>1940.7</ele>
        <time>2019-02-06T11:20:13.597</time>
      </trkpt>
      <trkpt lat="42.52877" lon="2.04997">
        <ele>1939.94</ele>
        <time>2019-02-06T11:20:21.597</time>
      </trkpt>
      <trkpt lat="42.52872" lon="2.05003">
        <ele>1939.38</ele>
        <time>2019-02-06T11:20:29.597</time>
      </trkpt>
      <trkpt lat="42.52867" lon="2.05011">
        <ele>1939.02</ele>
        <time>2019-02-06T11:20:38.597</time>
      </trkpt>
      <trkpt lat="42.52862" lon="2.05018">
        <ele>1938.72</ele>
        <time>2019-02-06T11:20:46.597</time>
      </trkpt>
      <trkpt lat="42.52857" lon="2.05023">
        <ele>1939.08</ele>
        <time>2019-02-06T11:20:54.597</time>
      </trkpt>
      <trkpt lat="42.52853" lon="2.05025">
        <ele>1939.52</ele>
        <time>2019-02-06T11:21:02.597</time>
      </trkpt>
      <trkpt lat="42.52813" lon="2.05013">
        <ele>1939.06</ele>
        <time>2019-02-06T11:21:10.580</time>
      </trkpt>
      <trkpt lat="42.52805" lon="2.05009">
        <ele>1938.64</ele>
        <time>2019-02-06T11:21:18.580</time>
      </trkpt>
      <trkpt lat="42.52797" lon="2.05008">
        <ele>1938.44</ele>
        <time>2019-02-06T11:21:26.580</time>
      </trkpt>
      <trkpt lat="42.52792" lon="2.0501">
        <ele>1937.84</ele>
        <time>2019-02-06T11:21:34.580</time>
      </trkpt>
      <trkpt lat="42.52794" lon="2.05014">
        <ele>1936.8</ele>
        <time>2019-02-06T11:21:42.580</time>
      </trkpt>
      <trkpt lat="42.52787" lon="2.05014">
        <ele>1935.68</ele>
        <time>2019-02-06T11:21:50.580</time>
      </trkpt>
      <trkpt lat="42.52779" lon="2.05009">
        <ele>1934.34</ele>
        <time>2019-02-06T11:21:59.580</time>
      </trkpt>
      <trkpt lat="42.52767" lon="2.0501">
        <ele>1932.9</ele>
        <time>2019-02-06T11:22:07.505</time>
      </trkpt>
      <trkpt lat="42.52762" lon="2.0501">
        <ele>1931.62</ele>
        <time>2019-02-06T11:22:17.505</time>
      </trkpt>
      <trkpt lat="42.52743" lon="2.05008">
        <ele>1930.54</ele>
        <time>2019-02-06T11:22:25.461</time>
      </trkpt>
      <trkpt lat="42.52735" lon="2.05011">
        <ele>1930.6</ele>
        <time>2019-02-06T11:22:33.461</time>
      </trkpt>
      <trkpt lat="42.52731" lon="2.05017">
        <ele>1929.98</ele>
        <time>2019-02-06T11:22:41.461</time>
      </trkpt>
      <trkpt lat="42.52727" lon="2.05023">
        <ele>1929.56</ele>
        <time>2019-02-06T11:22:49.461</time>
      </trkpt>
      <trkpt lat="42.52709" lon="2.05038">
        <ele>1929.42</ele>
        <time>2019-02-06T11:22:56.316</time>
      </trkpt>
      <trkpt lat="42.52708" lon="2.05043">
        <ele>1929.26</ele>
        <time>2019-02-06T11:23:04.316</time>
      </trkpt>
      <trkpt lat="42.52697" lon="2.05049">
        <ele>1929.14</ele>
        <time>2019-02-06T11:23:12.398</time>
      </trkpt>
      <trkpt lat="42.52696" lon="2.05052">
        <ele>1929.14</ele>
        <time>2019-02-06T11:23:20.398</time>
      </trkpt>
      <trkpt lat="42.52683" lon="2.05052">
        <ele>1928.6</ele>
        <time>2019-02-06T11:23:28.291</time>
      </trkpt>
      <trkpt lat="42.52674" lon="2.05055">
        <ele>1928.04</ele>
        <time>2019-02-06T11:23:37.291</time>
      </trkpt>
      <trkpt lat="42.52666" lon="2.05058">
        <ele>1926.78</ele>
        <time>2019-02-06T11:23:45.238</time>
      </trkpt>
      <trkpt lat="42.52663" lon="2.05058">
        <ele>1925.62</ele>
        <time>2019-02-06T11:23:53.238</time>
      </trkpt>
      <trkpt lat="42.52659" lon="2.05069">
        <ele>1925.26</ele>
        <time>2019-02-06T11:24:01.210</time>
      </trkpt>
      <trkpt lat="42.52655" lon="2.05073">
        <ele>1925.38</ele>
        <time>2019-02-06T11:24:09.210</time>
      </trkpt>
      <trkpt lat="42.52636" lon="2.05091">
        <ele>1924.44</ele>
        <time>2019-02-06T11:24:17.153</time>
      </trkpt>
      <trkpt lat="42.52631" lon="2.05091">
        <ele>1922.98</ele>
        <time>2019-02-06T11:24:25.153</time>
      </trkpt>
      <trkpt lat="42.52625" lon="2.05095">
        <ele>1920.9</ele>
        <time>2019-02-06T11:24:33.153</time>
      </trkpt>
      <trkpt lat="42.52614" lon="2.051">
        <ele>1917.44</ele>
        <time>2019-02-06T11:24:41.92</time>
      </trkpt>
      <trkpt lat="42.52607" lon="2.05101">
        <ele>1913.56</ele>
        <time>2019-02-06T11:24:49.92</time>
      </trkpt>
      <trkpt lat="42.526" lon="2.05101">
        <ele>1910.38</ele>
        <time>2019-02-06T11:24:57.92</time>
      </trkpt>
      <trkpt lat="42.52593" lon="2.051">
        <ele>1908.36</ele>
        <time>2019-02-06T11:25:05.92</time>
      </trkpt>
      <trkpt lat="42.52587" lon="2.051">
        <ele>1906.58</ele>
        <time>2019-02-06T11:25:13.92</time>
      </trkpt>
      <trkpt lat="42.52581" lon="2.05098">
        <ele>1906.04</ele>
        <time>2019-02-06T11:25:21.92</time>
      </trkpt>
      <trkpt lat="42.52581" lon="2.05103">
        <ele>1904.78</ele>
        <time>2019-02-06T11:25:29.92</time>
      </trkpt>
      <trkpt lat="42.52566" lon="2.05096">
        <ele>1903.42</ele>
        <time>2019-02-06T11:25:37.7</time>
      </trkpt>
      <trkpt lat="42.52561" lon="2.05091">
        <ele>1902.32</ele>
        <time>2019-02-06T11:25:47.7</time>
      </trkpt>
      <trkpt lat="42.52544" lon="2.05084">
        <ele>1901.02</ele>
        <time>2019-02-06T11:25:55.21</time>
      </trkpt>
      <trkpt lat="42.52535" lon="2.05078">
        <ele>1899.58</ele>
        <time>2019-02-06T11:26:03.21</time>
      </trkpt>
      <trkpt lat="42.52527" lon="2.0507">
        <ele>1899.06</ele>
        <time>2019-02-06T11:26:11.21</time>
      </trkpt>
      <trkpt lat="42.52519" lon="2.05065">
        <ele>1898.18</ele>
        <time>2019-02-06T11:26:19.21</time>
      </trkpt>
      <trkpt lat="42.52519" lon="2.05068">
        <ele>1896.78</ele>
        <time>2019-02-06T11:26:27.21</time>
      </trkpt>
      <trkpt lat="42.5251" lon="2.05065">
        <ele>1896.26</ele>
        <time>2019-02-06T11:26:37.21</time>
      </trkpt>
      <trkpt lat="42.52503" lon="2.05064">
        <ele>1895.58</ele>
        <time>2019-02-06T11:26:45.21</time>
      </trkpt>
      <trkpt lat="42.52496" lon="2.05065">
        <ele>1894.84</ele>
        <time>2019-02-06T11:26:53.21</time>
      </trkpt>
      <trkpt lat="42.52479" lon="2.05059">
        <ele>1893.62</ele>
        <time>2019-02-06T11:27:01.53</time>
      </trkpt>
      <trkpt lat="42.52473" lon="2.05053">
        <ele>1892.88</ele>
        <time>2019-02-06T11:27:09.53</time>
      </trkpt>
      <trkpt lat="42.52446" lon="2.05052">
        <ele>1891.34</ele>
        <time>2019-02-06T11:27:17.83</time>
      </trkpt>
      <trkpt lat="42.5244" lon="2.05056">
        <ele>1889.72</ele>
        <time>2019-02-06T11:27:25.83</time>
      </trkpt>
      <trkpt lat="42.52434" lon="2.05065">
        <ele>1886.84</ele>
        <time>2019-02-06T11:27:32.994</time>
      </trkpt>
      <trkpt lat="42.52432" lon="2.05064">
        <ele>1884.72</ele>
        <time>2019-02-06T11:27:40.994</time>
      </trkpt>
      <trkpt lat="42.52402" lon="2.05079">
        <ele>1881.76</ele>
        <time>2019-02-06T11:27:51.117</time>
      </trkpt>
      <trkpt lat="42.52396" lon="2.05082">
        <ele>1878.68</ele>
        <time>2019-02-06T11:27:59.117</time>
      </trkpt>
      <trkpt lat="42.52391" lon="2.05086">
        <ele>1875.9</ele>
        <time>2019-02-06T11:28:07.117</time>
      </trkpt>
      <trkpt lat="42.52381" lon="2.05094">
        <ele>1874.34</ele>
        <time>2019-02-06T11:28:14.970</time>
      </trkpt>
      <trkpt lat="42.52378" lon="2.05097">
        <ele>1873</ele>
        <time>2019-02-06T11:28:22.970</time>
      </trkpt>
      <trkpt lat="42.52367" lon="2.05106">
        <ele>1871.86</ele>
        <time>2019-02-06T11:28:30.944</time>
      </trkpt>
      <trkpt lat="42.52368" lon="2.0511">
        <ele>1870.58</ele>
        <time>2019-02-06T11:28:38.944</time>
      </trkpt>
      <trkpt lat="42.52359" lon="2.05123">
        <ele>1868.98</ele>
        <time>2019-02-06T11:28:46.689</time>
      </trkpt>
      <trkpt lat="42.52353" lon="2.05129">
        <ele>1867.32</ele>
        <time>2019-02-06T11:28:54.689</time>
      </trkpt>
      <trkpt lat="42.52347" lon="2.05137">
        <ele>1865.84</ele>
        <time>2019-02-06T11:29:03.689</time>
      </trkpt>
      <trkpt lat="42.52341" lon="2.05142">
        <ele>1864.8</ele>
        <time>2019-02-06T11:29:11.689</time>
      </trkpt>
      <trkpt lat="42.52337" lon="2.05149">
        <ele>1863.98</ele>
        <time>2019-02-06T11:29:19.689</time>
      </trkpt>
      <trkpt lat="42.52334" lon="2.05155">
        <ele>1862.88</ele>
        <time>2019-02-06T11:29:27.689</time>
      </trkpt>
      <trkpt lat="42.52324" lon="2.05175">
        <ele>1861.28</ele>
        <time>2019-02-06T11:29:35.659</time>
      </trkpt>
      <trkpt lat="42.52322" lon="2.05177">
        <ele>1859.58</ele>
        <time>2019-02-06T11:29:43.659</time>
      </trkpt>
      <trkpt lat="42.52313" lon="2.05181">
        <ele>1857.4</ele>
        <time>2019-02-06T11:29:51.633</time>
      </trkpt>
      <trkpt lat="42.52306" lon="2.05184">
        <ele>1855.08</ele>
        <time>2019-02-06T11:29:59.633</time>
      </trkpt>
      <trkpt lat="42.52299" lon="2.05188">
        <ele>1853.32</ele>
        <time>2019-02-06T11:30:07.633</time>
      </trkpt>
      <trkpt lat="42.52295" lon="2.05192">
        <ele>1852.04</ele>
        <time>2019-02-06T11:30:15.633</time>
      </trkpt>
      <trkpt lat="42.52286" lon="2.05201">
        <ele>1850.02</ele>
        <time>2019-02-06T11:30:24.44</time>
      </trkpt>
      <trkpt lat="42.52279" lon="2.05206">
        <ele>1848.54</ele>
        <time>2019-02-06T11:30:32.44</time>
      </trkpt>
      <trkpt lat="42.52272" lon="2.0521">
        <ele>1847.54</ele>
        <time>2019-02-06T11:30:40.44</time>
      </trkpt>
      <trkpt lat="42.52266" lon="2.05215">
        <ele>1846.4</ele>
        <time>2019-02-06T11:30:48.44</time>
      </trkpt>
      <trkpt lat="42.52266" lon="2.05216">
        <ele>1845.68</ele>
        <time>2019-02-06T11:30:56.44</time>
      </trkpt>
      <trkpt lat="42.52261" lon="2.05225">
        <ele>1845.02</ele>
        <time>2019-02-06T11:31:04.175</time>
      </trkpt>
      <trkpt lat="42.52254" lon="2.05226">
        <ele>1844.36</ele>
        <time>2019-02-06T11:31:12.175</time>
      </trkpt>
      <trkpt lat="42.52249" lon="2.05228">
        <ele>1843.48</ele>
        <time>2019-02-06T11:31:20.175</time>
      </trkpt>
      <trkpt lat="42.52241" lon="2.05234">
        <ele>1842.18</ele>
        <time>2019-02-06T11:31:28.183</time>
      </trkpt>
      <trkpt lat="42.52234" lon="2.05236">
        <ele>1840.66</ele>
        <time>2019-02-06T11:31:36.183</time>
      </trkpt>
      <trkpt lat="42.52228" lon="2.05238">
        <ele>1839.52</ele>
        <time>2019-02-06T11:31:44.183</time>
      </trkpt>
      <trkpt lat="42.52222" lon="2.05238">
        <ele>1838.28</ele>
        <time>2019-02-06T11:31:52.183</time>
      </trkpt>
      <trkpt lat="42.52216" lon="2.05239">
        <ele>1837.02</ele>
        <time>2019-02-06T11:32:00.183</time>
      </trkpt>
      <trkpt lat="42.52204" lon="2.05238">
        <ele>1836</ele>
        <time>2019-02-06T11:32:08.246</time>
      </trkpt>
      <trkpt lat="42.52197" lon="2.05237">
        <ele>1835.08</ele>
        <time>2019-02-06T11:32:16.246</time>
      </trkpt>
      <trkpt lat="42.52182" lon="2.05247">
        <ele>1833.48</ele>
        <time>2019-02-06T11:32:24.246</time>
      </trkpt>
      <trkpt lat="42.52176" lon="2.05251">
        <ele>1831.84</ele>
        <time>2019-02-06T11:32:32.246</time>
      </trkpt>
      <trkpt lat="42.52169" lon="2.05254">
        <ele>1830.54</ele>
        <time>2019-02-06T11:32:40.246</time>
      </trkpt>
      <trkpt lat="42.52163" lon="2.05258">
        <ele>1829.68</ele>
        <time>2019-02-06T11:32:48.246</time>
      </trkpt>
      <trkpt lat="42.52156" lon="2.05262">
        <ele>1828.96</ele>
        <time>2019-02-06T11:32:56.246</time>
      </trkpt>
      <trkpt lat="42.52149" lon="2.05266">
        <ele>1828.98</ele>
        <time>2019-02-06T11:33:04.246</time>
      </trkpt>
      <trkpt lat="42.52143" lon="2.05272">
        <ele>1828.88</ele>
        <time>2019-02-06T11:33:12.246</time>
      </trkpt>
      <trkpt lat="42.52137" lon="2.05278">
        <ele>1828.46</ele>
        <time>2019-02-06T11:33:20.246</time>
      </trkpt>
      <trkpt lat="42.52132" lon="2.05285">
        <ele>1827.92</ele>
        <time>2019-02-06T11:33:28.246</time>
      </trkpt>
      <trkpt lat="42.52126" lon="2.0529">
        <ele>1827.12</ele>
        <time>2019-02-06T11:33:36.246</time>
      </trkpt>
      <trkpt lat="42.5212" lon="2.05295">
        <ele>1826.52</ele>
        <time>2019-02-06T11:33:44.246</time>
      </trkpt>
      <trkpt lat="42.52115" lon="2.053">
        <ele>1825.92</ele>
        <time>2019-02-06T11:33:52.246</time>
      </trkpt>
      <trkpt lat="42.5211" lon="2.05308">
        <ele>1825.3</ele>
        <time>2019-02-06T11:34:01.246</time>
      </trkpt>
      <trkpt lat="42.52105" lon="2.05314">
        <ele>1824.62</ele>
        <time>2019-02-06T11:34:09.246</time>
      </trkpt>
      <trkpt lat="42.521" lon="2.0532">
        <ele>1824.22</ele>
        <time>2019-02-06T11:34:17.246</time>
      </trkpt>
      <trkpt lat="42.52095" lon="2.05325">
        <ele>1823.92</ele>
        <time>2019-02-06T11:34:25.246</time>
      </trkpt>
      <trkpt lat="42.52089" lon="2.05328">
        <ele>1824.1</ele>
        <time>2019-02-06T11:34:33.246</time>
      </trkpt>
      <trkpt lat="42.52086" lon="2.05336">
        <ele>1824.12</ele>
        <time>2019-02-06T11:34:41.246</time>
      </trkpt>
      <trkpt lat="42.52082" lon="2.05346">
        <ele>1824.08</ele>
        <time>2019-02-06T11:34:51.246</time>
      </trkpt>
      <trkpt lat="42.52075" lon="2.0536">
        <ele>1823.66</ele>
        <time>2019-02-06T11:34:59.151</time>
      </trkpt>
      <trkpt lat="42.5207" lon="2.05365">
        <ele>1823.24</ele>
        <time>2019-02-06T11:35:07.151</time>
      </trkpt>
      <trkpt lat="42.52064" lon="2.0537">
        <ele>1822.7</ele>
        <time>2019-02-06T11:35:15.151</time>
      </trkpt>
      <trkpt lat="42.52058" lon="2.05375">
        <ele>1822.32</ele>
        <time>2019-02-06T11:35:23.151</time>
      </trkpt>
      <trkpt lat="42.52052" lon="2.0538">
        <ele>1822.5</ele>
        <time>2019-02-06T11:35:32.151</time>
      </trkpt>
      <trkpt lat="42.52045" lon="2.05384">
        <ele>1823.16</ele>
        <time>2019-02-06T11:35:40.151</time>
      </trkpt>
      <trkpt lat="42.5204" lon="2.0539">
        <ele>1823.4</ele>
        <time>2019-02-06T11:35:48.151</time>
      </trkpt>
      <trkpt lat="42.52034" lon="2.05398">
        <ele>1823.36</ele>
        <time>2019-02-06T11:35:56.151</time>
      </trkpt>
      <trkpt lat="42.52029" lon="2.05404">
        <ele>1823.58</ele>
        <time>2019-02-06T11:36:04.151</time>
      </trkpt>
      <trkpt lat="42.52027" lon="2.05411">
        <ele>1823.1</ele>
        <time>2019-02-06T11:36:13.151</time>
      </trkpt>
      <trkpt lat="42.52027" lon="2.05415">
        <ele>1822.04</ele>
        <time>2019-02-06T11:36:21.151</time>
      </trkpt>
      <trkpt lat="42.52019" lon="2.05424">
        <ele>1821.52</ele>
        <time>2019-02-06T11:36:29.316</time>
      </trkpt>
      <trkpt lat="42.52014" lon="2.05429">
        <ele>1821.18</ele>
        <time>2019-02-06T11:36:37.316</time>
      </trkpt>
      <trkpt lat="42.52008" lon="2.05434">
        <ele>1820.68</ele>
        <time>2019-02-06T11:36:45.316</time>
      </trkpt>
      <trkpt lat="42.52003" lon="2.05439">
        <ele>1820.5</ele>
        <time>2019-02-06T11:36:53.316</time>
      </trkpt>
      <trkpt lat="42.51997" lon="2.05445">
        <ele>1820.64</ele>
        <time>2019-02-06T11:37:01.316</time>
      </trkpt>
      <trkpt lat="42.51991" lon="2.0545">
        <ele>1820.68</ele>
        <time>2019-02-06T11:37:09.316</time>
      </trkpt>
      <trkpt lat="42.51986" lon="2.05455">
        <ele>1820.92</ele>
        <time>2019-02-06T11:37:17.316</time>
      </trkpt>
      <trkpt lat="42.5198" lon="2.05461">
        <ele>1821.38</ele>
        <time>2019-02-06T11:37:25.316</time>
      </trkpt>
      <trkpt lat="42.51976" lon="2.05468">
        <ele>1821.86</ele>
        <time>2019-02-06T11:37:33.316</time>
      </trkpt>
      <trkpt lat="42.51971" lon="2.05472">
        <ele>1822.34</ele>
        <time>2019-02-06T11:37:41.316</time>
      </trkpt>
      <trkpt lat="42.51962" lon="2.05479">
        <ele>1823.12</ele>
        <time>2019-02-06T11:37:49.339</time>
      </trkpt>
      <trkpt lat="42.51956" lon="2.05484">
        <ele>1823.88</ele>
        <time>2019-02-06T11:37:57.339</time>
      </trkpt>
      <trkpt lat="42.51948" lon="2.05487">
        <ele>1824.5</ele>
        <time>2019-02-06T11:38:05.339</time>
      </trkpt>
      <trkpt lat="42.51942" lon="2.05492">
        <ele>1825.18</ele>
        <time>2019-02-06T11:38:13.339</time>
      </trkpt>
      <trkpt lat="42.51937" lon="2.05499">
        <ele>1825.9</ele>
        <time>2019-02-06T11:38:21.339</time>
      </trkpt>
      <trkpt lat="42.51934" lon="2.05509">
        <ele>1825.68</ele>
        <time>2019-02-06T11:38:29.339</time>
      </trkpt>
      <trkpt lat="42.51928" lon="2.0552">
        <ele>1824.9</ele>
        <time>2019-02-06T11:38:39.339</time>
      </trkpt>
      <trkpt lat="42.51923" lon="2.05526">
        <ele>1824.04</ele>
        <time>2019-02-06T11:38:47.339</time>
      </trkpt>
      <trkpt lat="42.51919" lon="2.05534">
        <ele>1822.66</ele>
        <time>2019-02-06T11:38:55.339</time>
      </trkpt>
      <trkpt lat="42.51916" lon="2.0554">
        <ele>1821.46</ele>
        <time>2019-02-06T11:39:03.339</time>
      </trkpt>
      <trkpt lat="42.51916" lon="2.05544">
        <ele>1820.78</ele>
        <time>2019-02-06T11:39:11.339</time>
      </trkpt>
      <trkpt lat="42.51945" lon="2.05675">
        <ele>1816.9</ele>
        <time>2019-02-06T11:39:19.191</time>
      </trkpt>
      <trkpt lat="42.51949" lon="2.05683">
        <ele>1813.12</ele>
        <time>2019-02-06T11:39:27.191</time>
      </trkpt>
      <trkpt lat="42.51952" lon="2.05689">
        <ele>1809.64</ele>
        <time>2019-02-06T11:39:35.191</time>
      </trkpt>
      <trkpt lat="42.5196" lon="2.05712">
        <ele>1805.42</ele>
        <time>2019-02-06T11:39:43.157</time>
      </trkpt>
      <trkpt lat="42.51964" lon="2.05718">
        <ele>1800.76</ele>
        <time>2019-02-06T11:39:51.157</time>
      </trkpt>
      <trkpt lat="42.51969" lon="2.05724">
        <ele>1799.74</ele>
        <time>2019-02-06T11:39:59.157</time>
      </trkpt>
      <trkpt lat="42.51973" lon="2.0573">
        <ele>1798.64</ele>
        <time>2019-02-06T11:40:07.157</time>
      </trkpt>
      <trkpt lat="42.51977" lon="2.05737">
        <ele>1797.66</ele>
        <time>2019-02-06T11:40:15.157</time>
      </trkpt>
      <trkpt lat="42.51981" lon="2.05743">
        <ele>1797.42</ele>
        <time>2019-02-06T11:40:23.157</time>
      </trkpt>
      <trkpt lat="42.52019" lon="2.058">
        <ele>1795.5</ele>
        <time>2019-02-06T11:40:31.106</time>
      </trkpt>
      <trkpt lat="42.52022" lon="2.05807">
        <ele>1793.58</ele>
        <time>2019-02-06T11:40:39.106</time>
      </trkpt>
      <trkpt lat="42.52028" lon="2.05818">
        <ele>1791.2</ele>
        <time>2019-02-06T11:40:47.138</time>
      </trkpt>
      <trkpt lat="42.5203" lon="2.05826">
        <ele>1789</ele>
        <time>2019-02-06T11:40:55.138</time>
      </trkpt>
      <trkpt lat="42.52031" lon="2.05834">
        <ele>1786.52</ele>
        <time>2019-02-06T11:41:03.138</time>
      </trkpt>
      <trkpt lat="42.52037" lon="2.05844">
        <ele>1786.1</ele>
        <time>2019-02-06T11:41:11.262</time>
      </trkpt>
      <trkpt lat="42.52042" lon="2.05851">
        <ele>1785.32</ele>
        <time>2019-02-06T11:41:19.262</time>
      </trkpt>
      <trkpt lat="42.52046" lon="2.05859">
        <ele>1785</ele>
        <time>2019-02-06T11:41:27.262</time>
      </trkpt>
      <trkpt lat="42.52049" lon="2.05866">
        <ele>1784.48</ele>
        <time>2019-02-06T11:41:35.262</time>
      </trkpt>
      <trkpt lat="42.52053" lon="2.05872">
        <ele>1783.7</ele>
        <time>2019-02-06T11:41:43.262</time>
      </trkpt>
      <trkpt lat="42.52056" lon="2.05878">
        <ele>1782.5</ele>
        <time>2019-02-06T11:41:51.262</time>
      </trkpt>
      <trkpt lat="42.52023" lon="2.05912">
        <ele>1782.04</ele>
        <time>2019-02-06T11:42:00.393</time>
      </trkpt>
      <trkpt lat="42.52016" lon="2.05909">
        <ele>1781.52</ele>
        <time>2019-02-06T11:42:08.393</time>
      </trkpt>
      <trkpt lat="42.51985" lon="2.05909">
        <ele>1780.78</ele>
        <time>2019-02-06T11:42:16.398</time>
      </trkpt>
      <trkpt lat="42.51979" lon="2.05913">
        <ele>1780.32</ele>
        <time>2019-02-06T11:42:24.398</time>
      </trkpt>
      <trkpt lat="42.52041" lon="2.0584">
        <ele>1780.6</ele>
        <time>2019-02-06T10:50:37</time>
      </trkpt>
      <trkpt lat="42.52034" lon="2.05821">
        <ele>1780.92</ele>
        <time>2019-02-06T10:50:44.947</time>
      </trkpt>
      <trkpt lat="42.5203" lon="2.0581">
        <ele>1781.56</ele>
        <time>2019-02-06T10:50:52.947</time>
      </trkpt>
      <trkpt lat="42.52026" lon="2.05803">
        <ele>1782.54</ele>
        <time>2019-02-06T10:51:00.947</time>
      </trkpt>
      <trkpt lat="42.52024" lon="2.05795">
        <ele>1783.84</ele>
        <time>2019-02-06T10:51:09.947</time>
      </trkpt>
      <trkpt lat="42.52021" lon="2.05789">
        <ele>1785.7</ele>
        <time>2019-02-06T10:51:17.947</time>
      </trkpt>
      <trkpt lat="42.52018" lon="2.05782">
        <ele>1787.4</ele>
        <time>2019-02-06T10:51:25.947</time>
      </trkpt>
      <trkpt lat="42.52008" lon="2.05766">
        <ele>1788.8</ele>
        <time>2019-02-06T10:51:33.990</time>
      </trkpt>
      <trkpt lat="42.52005" lon="2.0576">
        <ele>1790.38</ele>
        <time>2019-02-06T10:51:41.990</time>
      </trkpt>
      <trkpt lat="42.52001" lon="2.05753">
        <ele>1792</ele>
        <time>2019-02-06T10:51:49.990</time>
      </trkpt>
      <trkpt lat="42.51996" lon="2.05747">
        <ele>1792.86</ele>
        <time>2019-02-06T10:51:57.990</time>
      </trkpt>
      <trkpt lat="42.51992" lon="2.0574">
        <ele>1793.32</ele>
        <time>2019-02-06T10:52:05.990</time>
      </trkpt>
      <trkpt lat="42.51987" lon="2.05735">
        <ele>1794.26</ele>
        <time>2019-02-06T10:52:13.990</time>
      </trkpt>
      <trkpt lat="42.51983" lon="2.0573">
        <ele>1795.26</ele>
        <time>2019-02-06T10:52:21.990</time>
      </trkpt>
      <trkpt lat="42.51979" lon="2.05722">
        <ele>1796.06</ele>
        <time>2019-02-06T10:52:29.990</time>
      </trkpt>
      <trkpt lat="42.51975" lon="2.05716">
        <ele>1796.94</ele>
        <time>2019-02-06T10:52:37.990</time>
      </trkpt>
      <trkpt lat="42.51971" lon="2.05711">
        <ele>1798.16</ele>
        <time>2019-02-06T10:52:45.990</time>
      </trkpt>
      <trkpt lat="42.51967" lon="2.05704">
        <ele>1799.36</ele>
        <time>2019-02-06T10:52:53.990</time>
      </trkpt>
      <trkpt lat="42.51963" lon="2.05696">
        <ele>1800.72</ele>
        <time>2019-02-06T10:53:01.990</time>
      </trkpt>
      <trkpt lat="42.51959" lon="2.0569">
        <ele>1802.52</ele>
        <time>2019-02-06T10:53:09.990</time>
      </trkpt>
      <trkpt lat="42.51956" lon="2.05684">
        <ele>1803.48</ele>
        <time>2019-02-06T10:53:17.990</time>
      </trkpt>
      <trkpt lat="42.51949" lon="2.05671">
        <ele>1804.82</ele>
        <time>2019-02-06T10:53:25.983</time>
      </trkpt>
      <trkpt lat="42.51948" lon="2.05663">
        <ele>1806.28</ele>
        <time>2019-02-06T10:53:33.983</time>
      </trkpt>
      <trkpt lat="42.51948" lon="2.05655">
        <ele>1807.48</ele>
        <time>2019-02-06T10:53:41.983</time>
      </trkpt>
      <trkpt lat="42.51952" lon="2.05647">
        <ele>1808.86</ele>
        <time>2019-02-06T10:53:49.983</time>
      </trkpt>
      <trkpt lat="42.5195" lon="2.05632">
        <ele>1809.04</ele>
        <time>2019-02-06T10:53:58.2</time>
      </trkpt>
      <trkpt lat="42.51948" lon="2.05633">
        <ele>1809.14</ele>
        <time>2019-02-06T10:54:06.2</time>
      </trkpt>
      <trkpt lat="42.5194" lon="2.05608">
        <ele>1809.34</ele>
        <time>2019-02-06T10:54:13.996</time>
      </trkpt>
      <trkpt lat="42.51937" lon="2.05597">
        <ele>1809.28</ele>
        <time>2019-02-06T10:54:22.996</time>
      </trkpt>
      <trkpt lat="42.51932" lon="2.05588">
        <ele>1808.64</ele>
        <time>2019-02-06T10:54:30.996</time>
      </trkpt>
      <trkpt lat="42.51929" lon="2.0558">
        <ele>1809.94</ele>
        <time>2019-02-06T10:54:38.996</time>
      </trkpt>
      <trkpt lat="42.51926" lon="2.05573">
        <ele>1810.58</ele>
        <time>2019-02-06T10:54:46.996</time>
      </trkpt>
      <trkpt lat="42.51923" lon="2.05567">
        <ele>1810</ele>
        <time>2019-02-06T10:54:54.996</time>
      </trkpt>
      <trkpt lat="42.51923" lon="2.05559">
        <ele>1809.34</ele>
        <time>2019-02-06T10:55:02.996</time>
      </trkpt>
      <trkpt lat="42.51927" lon="2.05549">
        <ele>1808.72</ele>
        <time>2019-02-06T10:55:10.996</time>
      </trkpt>
      <trkpt lat="42.51921" lon="2.0555">
        <ele>1807.88</ele>
        <time>2019-02-06T10:55:18.996</time>
      </trkpt>
      <trkpt lat="42.51944" lon="2.05517">
        <ele>1807.38</ele>
        <time>2019-02-06T10:55:27.43</time>
      </trkpt>
      <trkpt lat="42.51948" lon="2.05511">
        <ele>1808.12</ele>
        <time>2019-02-06T10:55:35.43</time>
      </trkpt>
      <trkpt lat="42.51977" lon="2.05485">
        <ele>1809.68</ele>
        <time>2019-02-06T10:55:42.740</time>
      </trkpt>
      <trkpt lat="42.51982" lon="2.05479">
        <ele>1811.06</ele>
        <time>2019-02-06T10:55:50.740</time>
      </trkpt>
      <trkpt lat="42.51989" lon="2.05473">
        <ele>1812.52</ele>
        <time>2019-02-06T10:56:00.740</time>
      </trkpt>
      <trkpt lat="42.51994" lon="2.05467">
        <ele>1813.48</ele>
        <time>2019-02-06T10:56:08.740</time>
      </trkpt>
      <trkpt lat="42.52001" lon="2.05461">
        <ele>1813.8</ele>
        <time>2019-02-06T10:56:17.740</time>
      </trkpt>
      <trkpt lat="42.52004" lon="2.05457">
        <ele>1813.7</ele>
        <time>2019-02-06T10:56:25.740</time>
      </trkpt>
      <trkpt lat="42.52009" lon="2.05453">
        <ele>1813.66</ele>
        <time>2019-02-06T10:56:33.740</time>
      </trkpt>
      <trkpt lat="42.52023" lon="2.05434">
        <ele>1813.3</ele>
        <time>2019-02-06T10:56:42.257</time>
      </trkpt>
      <trkpt lat="42.52027" lon="2.05428">
        <ele>1813</ele>
        <time>2019-02-06T10:56:50.257</time>
      </trkpt>
      <trkpt lat="42.52032" lon="2.05423">
        <ele>1812.9</ele>
        <time>2019-02-06T10:56:58.257</time>
      </trkpt>
      <trkpt lat="42.52038" lon="2.05417">
        <ele>1812.1</ele>
        <time>2019-02-06T10:57:06.257</time>
      </trkpt>
      <trkpt lat="42.52043" lon="2.05411">
        <ele>1811.5</ele>
        <time>2019-02-06T10:57:14.257</time>
      </trkpt>
      <trkpt lat="42.52047" lon="2.05403">
        <ele>1811.32</ele>
        <time>2019-02-06T10:57:22.257</time>
      </trkpt>
      <trkpt lat="42.52055" lon="2.05396">
        <ele>1810.68</ele>
        <time>2019-02-06T10:57:30.138</time>
      </trkpt>
      <trkpt lat="42.52061" lon="2.0539">
        <ele>1810.04</ele>
        <time>2019-02-06T10:57:38.138</time>
      </trkpt>
      <trkpt lat="42.5207" lon="2.05383">
        <ele>1810.06</ele>
        <time>2019-02-06T10:57:46.161</time>
      </trkpt>
      <trkpt lat="42.52076" lon="2.05376">
        <ele>1810.2</ele>
        <time>2019-02-06T10:57:54.161</time>
      </trkpt>
      <trkpt lat="42.52081" lon="2.05369">
        <ele>1810.48</ele>
        <time>2019-02-06T10:58:02.161</time>
      </trkpt>
      <trkpt lat="42.52085" lon="2.0536">
        <ele>1811.5</ele>
        <time>2019-02-06T10:58:10.161</time>
      </trkpt>
      <trkpt lat="42.52093" lon="2.0535">
        <ele>1812.2</ele>
        <time>2019-02-06T10:58:22.161</time>
      </trkpt>
      <trkpt lat="42.52094" lon="2.0535">
        <ele>1812.02</ele>
        <time>2019-02-06T10:58:30.161</time>
      </trkpt>
      <trkpt lat="42.52105" lon="2.05334">
        <ele>1811.78</ele>
        <time>2019-02-06T10:58:38.269</time>
      </trkpt>
      <trkpt lat="42.52113" lon="2.05327">
        <ele>1811.24</ele>
        <time>2019-02-06T10:58:46.269</time>
      </trkpt>
      <trkpt lat="42.5212" lon="2.05318">
        <ele>1810.92</ele>
        <time>2019-02-06T10:58:56.269</time>
      </trkpt>
      <trkpt lat="42.52125" lon="2.05311">
        <ele>1811.16</ele>
        <time>2019-02-06T10:59:04.269</time>
      </trkpt>
      <trkpt lat="42.52129" lon="2.05306">
        <ele>1812.02</ele>
        <time>2019-02-06T10:59:12.269</time>
      </trkpt>
      <trkpt lat="42.52135" lon="2.05301">
        <ele>1812.74</ele>
        <time>2019-02-06T10:59:20.269</time>
      </trkpt>
      <trkpt lat="42.5214" lon="2.05296">
        <ele>1813.48</ele>
        <time>2019-02-06T10:59:28.269</time>
      </trkpt>
      <trkpt lat="42.52143" lon="2.0529">
        <ele>1813.78</ele>
        <time>2019-02-06T10:59:36.269</time>
      </trkpt>
      <trkpt lat="42.52148" lon="2.05285">
        <ele>1813.48</ele>
        <time>2019-02-06T10:59:44.269</time>
      </trkpt>
      <trkpt lat="42.52154" lon="2.05281">
        <ele>1813.08</ele>
        <time>2019-02-06T10:59:52.269</time>
      </trkpt>
      <trkpt lat="42.52159" lon="2.05279">
        <ele>1812.98</ele>
        <time>2019-02-06T11:00:00.269</time>
      </trkpt>
      <trkpt lat="42.52202" lon="2.05242">
        <ele>1813.98</ele>
        <time>2019-02-06T11:00:08.384</time>
      </trkpt>
      <trkpt lat="42.52206" lon="2.05238">
        <ele>1815.62</ele>
        <time>2019-02-06T11:00:16.384</time>
      </trkpt>
      <trkpt lat="42.52249" lon="2.05229">
        <ele>1819.14</ele>
        <time>2019-02-06T11:00:25.517</time>
      </trkpt>
      <trkpt lat="42.52254" lon="2.05222">
        <ele>1822.94</ele>
        <time>2019-02-06T11:00:33.517</time>
      </trkpt>
      <trkpt lat="42.52281" lon="2.05208">
        <ele>1827.14</ele>
        <time>2019-02-06T11:00:41.474</time>
      </trkpt>
      <trkpt lat="42.52281" lon="2.05205">
        <ele>1830.44</ele>
        <time>2019-02-06T11:00:49.474</time>
      </trkpt>
      <trkpt lat="42.52354" lon="2.05143">
        <ele>1837.08</ele>
        <time>2019-02-06T11:00:57.480</time>
      </trkpt>
      <trkpt lat="42.52358" lon="2.05137">
        <ele>1841.96</ele>
        <time>2019-02-06T11:01:05.480</time>
      </trkpt>
      <trkpt lat="42.52364" lon="2.05132">
        <ele>1846.78</ele>
        <time>2019-02-06T11:01:13.480</time>
      </trkpt>
      <trkpt lat="42.52368" lon="2.05127">
        <ele>1850.42</ele>
        <time>2019-02-06T11:01:21.480</time>
      </trkpt>
      <trkpt lat="42.52371" lon="2.05121">
        <ele>1853.54</ele>
        <time>2019-02-06T11:01:29.480</time>
      </trkpt>
      <trkpt lat="42.52425" lon="2.05081">
        <ele>1856.14</ele>
        <time>2019-02-06T11:01:38.607</time>
      </trkpt>
      <trkpt lat="42.52426" lon="2.05079">
        <ele>1858.5</ele>
        <time>2019-02-06T11:01:46.607</time>
      </trkpt>
      <trkpt lat="42.52492" lon="2.05075">
        <ele>1864.78</ele>
        <time>2019-02-06T11:01:54.305</time>
      </trkpt>
      <trkpt lat="42.52499" lon="2.05076">
        <ele>1870.76</ele>
        <time>2019-02-06T11:02:02.305</time>
      </trkpt>
      <trkpt lat="42.52516" lon="2.05078">
        <ele>1878.14</ele>
        <time>2019-02-06T11:02:10.364</time>
      </trkpt>
      <trkpt lat="42.52521" lon="2.05081">
        <ele>1882.28</ele>
        <time>2019-02-06T11:02:18.364</time>
      </trkpt>
      <trkpt lat="42.52548" lon="2.05093">
        <ele>1888</ele>
        <time>2019-02-06T11:02:26.368</time>
      </trkpt>
      <trkpt lat="42.52553" lon="2.05097">
        <ele>1890.08</ele>
        <time>2019-02-06T11:02:34.368</time>
      </trkpt>
      <trkpt lat="42.52563" lon="2.05103">
        <ele>1892.98</ele>
        <time>2019-02-06T11:02:42.460</time>
      </trkpt>
      <trkpt lat="42.52568" lon="2.05109">
        <ele>1894.46</ele>
        <time>2019-02-06T11:02:50.460</time>
      </trkpt>
      <trkpt lat="42.52573" lon="2.05113">
        <ele>1895.68</ele>
        <time>2019-02-06T11:02:58.460</time>
      </trkpt>
      <trkpt lat="42.52584" lon="2.05118">
        <ele>1895.78</ele>
        <time>2019-02-06T11:03:06.513</time>
      </trkpt>
      <trkpt lat="42.52589" lon="2.05118">
        <ele>1895.3</ele>
        <time>2019-02-06T11:03:14.513</time>
      </trkpt>
      <trkpt lat="42.52608" lon="2.05111">
        <ele>1894.98</ele>
        <time>2019-02-06T11:03:22.313</time>
      </trkpt>
      <trkpt lat="42.52612" lon="2.05112">
        <ele>1895.48</ele>
        <time>2019-02-06T11:03:30.313</time>
      </trkpt>
      <trkpt lat="42.52651" lon="2.05094">
        <ele>1898.42</ele>
        <time>2019-02-06T11:03:37.324</time>
      </trkpt>
      <trkpt lat="42.52655" lon="2.05089">
        <ele>1900.92</ele>
        <time>2019-02-06T11:03:45.324</time>
      </trkpt>
      <trkpt lat="42.52694" lon="2.05064">
        <ele>1905.72</ele>
        <time>2019-02-06T11:03:52.963</time>
      </trkpt>
      <trkpt lat="42.52702" lon="2.05065">
        <ele>1910.42</ele>
        <time>2019-02-06T11:04:00.963</time>
      </trkpt>
      <trkpt lat="42.52708" lon="2.05063">
        <ele>1914.98</ele>
        <time>2019-02-06T11:04:08.963</time>
      </trkpt>
      <trkpt lat="42.52712" lon="2.05054">
        <ele>1917.38</ele>
        <time>2019-02-06T11:04:16.963</time>
      </trkpt>
      <trkpt lat="42.52714" lon="2.0505">
        <ele>1919.78</ele>
        <time>2019-02-06T11:04:24.963</time>
      </trkpt>
      <trkpt lat="42.52731" lon="2.05031">
        <ele>1919.88</ele>
        <time>2019-02-06T11:04:33.46</time>
      </trkpt>
      <trkpt lat="42.52734" lon="2.05025">
        <ele>1920.36</ele>
        <time>2019-02-06T11:04:41.46</time>
      </trkpt>
      <trkpt lat="42.5274" lon="2.05021">
        <ele>1920.68</ele>
        <time>2019-02-06T11:04:49.46</time>
      </trkpt>
      <trkpt lat="42.5278" lon="2.05027">
        <ele>1921.84</ele>
        <time>2019-02-06T11:04:57.24</time>
      </trkpt>
      <trkpt lat="42.52788" lon="2.05027">
        <ele>1923.42</ele>
        <time>2019-02-06T11:05:05.24</time>
      </trkpt>
      <trkpt lat="42.52809" lon="2.05025">
        <ele>1924.62</ele>
        <time>2019-02-06T11:05:13.156</time>
      </trkpt>
      <trkpt lat="42.52814" lon="2.05029">
        <ele>1924.7</ele>
        <time>2019-02-06T11:05:21.156</time>
      </trkpt>
      <trkpt lat="42.52825" lon="2.05036">
        <ele>1924.92</ele>
        <time>2019-02-06T11:05:28.881</time>
      </trkpt>
      <trkpt lat="42.52831" lon="2.05039">
        <ele>1924.56</ele>
        <time>2019-02-06T11:05:36.881</time>
      </trkpt>
      <trkpt lat="42.52837" lon="2.05038">
        <ele>1924.54</ele>
        <time>2019-02-06T11:05:44.881</time>
      </trkpt>
      <trkpt lat="42.52843" lon="2.05037">
        <ele>1924.92</ele>
        <time>2019-02-06T11:05:52.881</time>
      </trkpt>
      <trkpt lat="42.52876" lon="2.05011">
        <ele>1927</ele>
        <time>2019-02-06T11:06:00.809</time>
      </trkpt>
      <trkpt lat="42.52877" lon="2.0501">
        <ele>1929.14</ele>
        <time>2019-02-06T11:06:08.809</time>
      </trkpt>
      <trkpt lat="42.52884" lon="2.04997">
        <ele>1930.78</ele>
        <time>2019-02-06T11:06:17.950</time>
      </trkpt>
      <trkpt lat="42.52889" lon="2.04991">
        <ele>1931.36</ele>
        <time>2019-02-06T11:06:26.950</time>
      </trkpt>
      <trkpt lat="42.52893" lon="2.04984">
        <ele>1932.98</ele>
        <time>2019-02-06T11:06:34.950</time>
      </trkpt>
      <trkpt lat="42.52897" lon="2.04978">
        <ele>1933.4</ele>
        <time>2019-02-06T11:06:42.950</time>
      </trkpt>
      <trkpt lat="42.52909" lon="2.04965">
        <ele>1934.48</ele>
        <time>2019-02-06T11:06:50.843</time>
      </trkpt>
      <trkpt lat="42.52913" lon="2.0496">
        <ele>1935.68</ele>
        <time>2019-02-06T11:06:58.843</time>
      </trkpt>
      <trkpt lat="42.52991" lon="2.04854">
        <ele>1942.8</ele>
        <time>2019-02-06T11:07:08.12</time>
      </trkpt>
      <trkpt lat="42.52996" lon="2.0485">
        <ele>1949.92</ele>
        <time>2019-02-06T11:07:16.12</time>
      </trkpt>
      <trkpt lat="42.53004" lon="2.04833">
        <ele>1959.7</ele>
        <time>2019-02-06T11:07:23.791</time>
      </trkpt>
      <trkpt lat="42.53011" lon="2.04828">
        <ele>1968.36</ele>
        <time>2019-02-06T11:07:31.791</time>
      </trkpt>
      <trkpt lat="42.53016" lon="2.04822">
        <ele>1976.86</ele>
        <time>2019-02-06T11:07:39.791</time>
      </trkpt>
      <trkpt lat="42.53021" lon="2.04816">
        <ele>1978.64</ele>
        <time>2019-02-06T11:07:47.791</time>
      </trkpt>
      <trkpt lat="42.53047" lon="2.04774">
        <ele>1980.26</ele>
        <time>2019-02-06T11:07:55.616</time>
      </trkpt>
      <trkpt lat="42.5305" lon="2.0477">
        <ele>1979.04</ele>
        <time>2019-02-06T11:08:03.616</time>
      </trkpt>
      <trkpt lat="42.53065" lon="2.04754">
        <ele>1978.84</ele>
        <time>2019-02-06T11:08:12.666</time>
      </trkpt>
      <trkpt lat="42.53068" lon="2.04746">
        <ele>1978.48</ele>
        <time>2019-02-06T11:08:20.666</time>
      </trkpt>
      <trkpt lat="42.53072" lon="2.0474">
        <ele>1979.5</ele>
        <time>2019-02-06T11:08:28.666</time>
      </trkpt>
      <trkpt lat="42.53076" lon="2.04734">
        <ele>1979.24</ele>
        <time>2019-02-06T11:08:36.666</time>
      </trkpt>
      <trkpt lat="42.53082" lon="2.04724">
        <ele>1979.88</ele>
        <time>2019-02-06T11:08:45.666</time>
      </trkpt>
      <trkpt lat="42.53087" lon="2.04717">
        <ele>1979.64</ele>
        <time>2019-02-06T11:08:53.666</time>
      </trkpt>
      <trkpt lat="42.53093" lon="2.04711">
        <ele>1979.72</ele>
        <time>2019-02-06T11:09:01.666</time>
      </trkpt>
      <trkpt lat="42.53098" lon="2.04706">
        <ele>1979.76</ele>
        <time>2019-02-06T11:09:09.666</time>
      </trkpt>
      <trkpt lat="42.53101" lon="2.04702">
        <ele>1980.54</ele>
        <time>2019-02-06T11:09:17.666</time>
      </trkpt>
      <trkpt lat="42.53127" lon="2.04671">
        <ele>1984.46</ele>
        <time>2019-02-06T11:09:25.688</time>
      </trkpt>
      <trkpt lat="42.53129" lon="2.04671">
        <ele>1988.82</ele>
        <time>2019-02-06T11:09:33.688</time>
      </trkpt>
      <trkpt lat="42.53123" lon="2.04671">
        <ele>1991.54</ele>
        <time>2019-02-06T11:09:41.744</time>
      </trkpt>
      <trkpt lat="42.53121" lon="2.0467">
        <ele>1994.06</ele>
        <time>2019-02-06T11:09:49.744</time>
      </trkpt>
      <trkpt lat="42.53154" lon="2.04631">
        <ele>1995.06</ele>
        <time>2019-02-06T11:09:57.764</time>
      </trkpt>
      <trkpt lat="42.53158" lon="2.04627">
        <ele>1992.24</ele>
        <time>2019-02-06T11:10:05.764</time>
      </trkpt>
      <trkpt lat="42.53195" lon="2.04576">
        <ele>1989.48</ele>
        <time>2019-02-06T11:10:13.834</time>
      </trkpt>
      <trkpt lat="42.53199" lon="2.04569">
        <ele>1988.24</ele>
        <time>2019-02-06T11:10:21.834</time>
      </trkpt>
      <trkpt lat="42.53248" lon="2.04526">
        <ele>1989.66</ele>
        <time>2019-02-06T11:10:29.640</time>
      </trkpt>
      <trkpt lat="42.53249" lon="2.04524">
        <ele>1992.38</ele>
        <time>2019-02-06T11:10:37.640</time>
      </trkpt>
      <trkpt lat="42.53298" lon="2.04446">
        <ele>1994.34</ele>
        <time>2019-02-06T11:10:45.759</time>
      </trkpt>
      <trkpt lat="42.53302" lon="2.04439">
        <ele>1995.74</ele>
        <time>2019-02-06T11:10:53.759</time>
      </trkpt>
      <trkpt lat="42.53309" lon="2.0443">
        <ele>1997.42</ele>
        <time>2019-02-06T11:11:02.759</time>
      </trkpt>
      <trkpt lat="42.53313" lon="2.04424">
        <ele>1996.32</ele>
        <time>2019-02-06T11:11:10.759</time>
      </trkpt>
      <trkpt lat="42.5332" lon="2.04422">
        <ele>1995.72</ele>
        <time>2019-02-06T11:11:22.759</time>
      </trkpt>
      <trkpt lat="42.5336" lon="2.04399">
        <ele>1995.7</ele>
        <time>2019-02-06T11:11:30.686</time>
      </trkpt>
      <trkpt lat="42.53366" lon="2.04393">
        <ele>1995.9</ele>
        <time>2019-02-06T11:11:38.686</time>
      </trkpt>
      <trkpt lat="42.53372" lon="2.04392">
        <ele>1995.9</ele>
        <time>2019-02-06T11:11:46.686</time>
      </trkpt>
      <trkpt lat="42.53378" lon="2.04389">
        <ele>1996.6</ele>
        <time>2019-02-06T11:11:54.686</time>
      </trkpt>
      <trkpt lat="42.53384" lon="2.04383">
        <ele>1997.6</ele>
        <time>2019-02-06T11:12:03.686</time>
      </trkpt>
      <trkpt lat="42.5339" lon="2.04377">
        <ele>1998.9</ele>
        <time>2019-02-06T11:12:11.686</time>
      </trkpt>
      <trkpt lat="42.53393" lon="2.0437">
        <ele>1999.56</ele>
        <time>2019-02-06T11:12:19.686</time>
      </trkpt>
      <trkpt lat="42.53399" lon="2.04364">
        <ele>2000.8</ele>
        <time>2019-02-06T11:12:27.686</time>
      </trkpt>
      <trkpt lat="42.53404" lon="2.04358">
        <ele>2001.98</ele>
        <time>2019-02-06T11:12:35.686</time>
      </trkpt>
      <trkpt lat="42.53407" lon="2.04351">
        <ele>2002.48</ele>
        <time>2019-02-06T11:12:44.686</time>
      </trkpt>
      <trkpt lat="42.53423" lon="2.0436">
        <ele>2003.22</ele>
        <time>2019-02-06T11:12:52.689</time>
      </trkpt>
      <trkpt lat="42.53427" lon="2.0436">
        <ele>2004.4</ele>
        <time>2019-02-06T11:13:00.689</time>
      </trkpt>
      <trkpt lat="42.53421" lon="2.04384">
        <ele>2004.14</ele>
        <time>2019-02-06T11:13:08.651</time>
      </trkpt>
      <trkpt lat="42.53421" lon="2.04387">
        <ele>2003.94</ele>
        <time>2019-02-06T11:13:16.651</time>
      </trkpt>
      <trkpt lat="42.53413" lon="2.04375">
        <ele>2005.02</ele>
        <time>2019-02-06T11:13:25.771</time>
      </trkpt>
      <trkpt lat="42.5341" lon="2.04369">
        <ele>2005.42</ele>
        <time>2019-02-06T11:13:33.771</time>
      </trkpt>
      <trkpt lat="42.53397" lon="2.04313">
        <ele>2005.58</ele>
        <time>2019-02-06T11:13:41.862</time>
      </trkpt>
      <trkpt lat="42.5339" lon="2.04309">
        <ele>2006.78</ele>
        <time>2019-02-06T11:13:49.862</time>
      </trkpt>
      <trkpt lat="42.53384" lon="2.04311">
        <ele>2007.68</ele>
        <time>2019-02-06T11:13:57.862</time>
      </trkpt>
      <trkpt lat="42.53377" lon="2.04313">
        <ele>2007.2</ele>
        <time>2019-02-06T11:14:05.862</time>
      </trkpt>
      <trkpt lat="42.53373" lon="2.04315">
        <ele>2006.74</ele>
        <time>2019-02-06T11:14:13.862</time>
      </trkpt>
      <trkpt lat="42.53366" lon="2.04318">
        <ele>2006.48</ele>
        <time>2019-02-06T11:14:21.862</time>
      </trkpt>
      <trkpt lat="42.53359" lon="2.04318">
        <ele>2005.96</ele>
        <time>2019-02-06T11:14:30.862</time>
      </trkpt>
      <trkpt lat="42.53338" lon="2.0438">
        <ele>2004.44</ele>
        <time>2019-02-06T11:14:38.790</time>
      </trkpt>
      <trkpt lat="42.53333" lon="2.04386">
        <ele>2002.92</ele>
        <time>2019-02-06T11:14:46.790</time>
      </trkpt>
      <trkpt lat="42.53307" lon="2.04432">
        <ele>2001.9</ele>
        <time>2019-02-06T11:14:58.727</time>
      </trkpt>
      <trkpt lat="42.53301" lon="2.0444">
        <ele>2000.86</ele>
        <time>2019-02-06T11:15:06.727</time>
      </trkpt>
      <trkpt lat="42.53297" lon="2.04448">
        <ele>1999.9</ele>
        <time>2019-02-06T11:15:14.727</time>
      </trkpt>
      <trkpt lat="42.53293" lon="2.04453">
        <ele>2000.02</ele>
        <time>2019-02-06T11:15:22.727</time>
      </trkpt>
      <trkpt lat="42.5329" lon="2.04459">
        <ele>2000.22</ele>
        <time>2019-02-06T11:15:30.727</time>
      </trkpt>
      <trkpt lat="42.53278" lon="2.04474">
        <ele>2001.5</ele>
        <time>2019-02-06T11:15:38.497</time>
      </trkpt>
      <trkpt lat="42.53274" lon="2.0448">
        <ele>2002.78</ele>
        <time>2019-02-06T11:15:46.497</time>
      </trkpt>
      <trkpt lat="42.53261" lon="2.04497">
        <ele>2004.08</ele>
        <time>2019-02-06T11:15:54.362</time>
      </trkpt>
      <trkpt lat="42.53257" lon="2.04503">
        <ele>2005.2</ele>
        <time>2019-02-06T11:16:02.362</time>
      </trkpt>
      <trkpt lat="42.53196" lon="2.04571">
        <ele>2004.72</ele>
        <time>2019-02-06T11:16:10.380</time>
      </trkpt>
      <trkpt lat="42.53192" lon="2.04577">
        <ele>2002.72</ele>
        <time>2019-02-06T11:16:18.380</time>
      </trkpt>
      <trkpt lat="42.53091" lon="2.04708">
        <ele>1998.3</ele>
        <time>2019-02-06T11:16:26.306</time>
      </trkpt>
      <trkpt lat="42.53086" lon="2.04713">
        <ele>1993.72</ele>
        <time>2019-02-06T11:16:35.306</time>
      </trkpt>
      <trkpt lat="42.53064" lon="2.04747">
        <ele>1988.84</ele>
        <time>2019-02-06T11:16:43.336</time>
      </trkpt>
      <trkpt lat="42.5306" lon="2.04751">
        <ele>1985.68</ele>
        <time>2019-02-06T11:16:51.336</time>
      </trkpt>
      <trkpt lat="42.53007" lon="2.04826">
        <ele>1980.7</ele>
        <time>2019-02-06T11:16:59.343</time>
      </trkpt>
      <trkpt lat="42.53002" lon="2.04833">
        <ele>1977.9</ele>
        <time>2019-02-06T11:17:08.343</time>
      </trkpt>
      <trkpt lat="42.52994" lon="2.04845">
        <ele>1974.98</ele>
        <time>2019-02-06T11:17:16.342</time>
      </trkpt>
      <trkpt lat="42.52989" lon="2.04851">
        <ele>1972.1</ele>
        <time>2019-02-06T11:17:24.342</time>
      </trkpt>
      <trkpt lat="42.52985" lon="2.04857">
        <ele>1968.7</ele>
        <time>2019-02-06T11:17:32.342</time>
      </trkpt>
      <trkpt lat="42.5298" lon="2.04862">
        <ele>1967.14</ele>
        <time>2019-02-06T11:17:40.342</time>
      </trkpt>
      <trkpt lat="42.52976" lon="2.04869">
        <ele>1965.8</ele>
        <time>2019-02-06T11:17:48.342</time>
      </trkpt>
      <trkpt lat="42.5297" lon="2.04875">
        <ele>1964.48</ele>
        <time>2019-02-06T11:17:56.342</time>
      </trkpt>
      <trkpt lat="42.52966" lon="2.04882">
        <ele>1962.8</ele>
        <time>2019-02-06T11:18:04.342</time>
      </trkpt>
      <trkpt lat="42.52962" lon="2.04888">
        <ele>1961.46</ele>
        <time>2019-02-06T11:18:12.342</time>
      </trkpt>
      <trkpt lat="42.52959" lon="2.04893">
        <ele>1959.92</ele>
        <time>2019-02-06T11:18:20.342</time>
      </trkpt>
      <trkpt lat="42.5295" lon="2.04902">
        <ele>1957.82</ele>
        <time>2019-02-06T11:18:29.640</time>
      </trkpt>
      <trkpt lat="42.52948" lon="2.04905">
        <ele>1955.9</ele>
        <time>2019-02-06T11:18:37.640</time>
      </trkpt>
      <trkpt lat="42.52937" lon="2.04919">
        <ele>1954.24</ele>
        <time>2019-02-06T11:18:45.597</time>
      </trkpt>
      <trkpt lat="42.52932" lon="2.04925">
        <ele>1952.4</ele>
        <time>2019-02-06T11:18:53.597</time>
      </trkpt>
      <trkpt lat="42.52926" lon="2.04931">
        <ele>1950.76</ele>
        <time>2019-02-06T11:19:01.597</time>
      </trkpt>
      <trkpt lat="42.5292" lon="2.04938">
        <ele>1949.86</ele>
        <time>2019-02-06T11:19:09.597</time>
      </trkpt>
      <trkpt lat="42.52915" lon="2.04945">
        <ele>1948.66</ele>
        <time>2019-02-06T11:19:17.597</time>
      </trkpt>
      <trkpt lat="42.52909" lon="2.04951">
        <ele>1947.62</ele>
        <time>2019-02-06T11:19:25.597</time>
      </trkpt>
      <trkpt lat="42.52905" lon="2.04956">
        <ele>1946.24</ele>
        <time>2019-02-06T11:19:33.597</time>
      </trkpt>
      <trkpt lat="42.52902" lon="2.04959">
        <ele>1945.04</ele>
        <time>2019-02-06T11:19:41.597</time>
      </trkpt>
      <trkpt lat="42.52897" lon="2.04966">
        <ele>1943.68</ele>
        <time>2019-02-06T11:19:49.597</time>
      </trkpt>
      <trkpt lat="42.52891" lon="2.04972">
        <ele>1942.68</ele>
        <time>2019-02-06T11:19:57.597</time>
      </trkpt>
      <trkpt lat="42.52885" lon="2.04979">
        <ele>1941.64</ele>
        <time>2019-02-06T11:20:05.597</time>
      </trkpt>
      <trkpt lat="42.52881" lon="2.04989">
        <ele>1940.7</ele>
        <time>2019-02-06T11:20:13.597</time>
      </trkpt>
      <trkpt lat="42.52877" lon="2.04997">
        <ele>1939.94</ele>
        <time>2019-02-06T11:20:21.597</time>
      </trkpt>
      <trkpt lat="42.52872" lon="2.05003">
        <ele>1939.38</ele>
        <time>2019-02-06T11:20:29.597</time>
      </trkpt>
      <trkpt lat="42.52867" lon="2.05011">
        <ele>1939.02</ele>
        <time>2019-02-06T11:20:38.597</time>
      </trkpt>
      <trkpt lat="42.52862" lon="2.05018">
        <ele>1938.72</ele>
        <time>2019-02-06T11:20:46.597</time>
      </trkpt>
      <trkpt lat="42.52857" lon="2.05023">
        <ele>1939.08</ele>
        <time>2019-02-06T11:20:54.597</time>
      </trkpt>
      <trkpt lat="42.52853" lon="2.05025">
        <ele>1939.52</ele>
        <time>2019-02-06T11:21:02.597</time>
      </trkpt>
      <trkpt lat="42.52813" lon="2.05013">
        <ele>1939.06</ele>
        <time>2019-02-06T11:21:10.580</time>
      </trkpt>
      <trkpt lat="42.52805" lon="2.05009">
        <ele>1938.64</ele>
        <time>2019-02-06T11:21:18.580</time>
      </trkpt>
      <trkpt lat="42.52797" lon="2.05008">
        <ele>1938.44</ele>
        <time>2019-02-06T11:21:26.580</time>
      </trkpt>
      <trkpt lat="42.52792" lon="2.0501">
        <ele>1937.84</ele>
        <time>2019-02-06T11:21:34.580</time>
      </trkpt>
      <trkpt lat="42.52794" lon="2.05014">
        <ele>1936.8</ele>
        <time>2019-02-06T11:21:42.580</time>
      </trkpt>
      <trkpt lat="42.52787" lon="2.05014">
        <ele>1935.68</ele>
        <time>2019-02-06T11:21:50.580</time>
      </trkpt>
      <trkpt lat="42.52779" lon="2.05009">
        <ele>1934.34</ele>
        <time>2019-02-06T11:21:59.580</time>
      </trkpt>
      <trkpt lat="42.52767" lon="2.0501">
        <ele>1932.9</ele>
        <time>2019-02-06T11:22:07.505</time>
      </trkpt>
      <trkpt lat="42.52762" lon="2.0501">
        <ele>1931.62</ele>
        <time>2019-02-06T11:22:17.505</time>
      </trkpt>
      <trkpt lat="42.52743" lon="2.05008">
        <ele>1930.54</ele>
        <time>2019-02-06T11:22:25.461</time>
      </trkpt>
      <trkpt lat="42.52735" lon="2.05011">
        <ele>1930.6</ele>
        <time>2019-02-06T11:22:33.461</time>
      </trkpt>
      <trkpt lat="42.52731" lon="2.05017">
        <ele>1929.98</ele>
        <time>2019-02-06T11:22:41.461</time>
      </trkpt>
      <trkpt lat="42.52727" lon="2.05023">
        <ele>1929.56</ele>
        <time>2019-02-06T11:22:49.461</time>
      </trkpt>
      <trkpt lat="42.52709" lon="2.05038">
        <ele>1929.42</ele>
        <time>2019-02-06T11:22:56.316</time>
      </trkpt>
      <trkpt lat="42.52708" lon="2.05043">
        <ele>1929.26</ele>
        <time>2019-02-06T11:23:04.316</time>
      </trkpt>
      <trkpt lat="42.52697" lon="2.05049">
        <ele>1929.14</ele>
        <time>2019-02-06T11:23:12.398</time>
      </trkpt>
      <trkpt lat="42.52696" lon="2.05052">
        <ele>1929.14</ele>
        <time>2019-02-06T11:23:20.398</time>
      </trkpt>
      <trkpt lat="42.52683" lon="2.05052">
        <ele>1928.6</ele>
        <time>2019-02-06T11:23:28.291</time>
      </trkpt>
      <trkpt lat="42.52674" lon="2.05055">
        <ele>1928.04</ele>
        <time>2019-02-06T11:23:37.291</time>
      </trkpt>
      <trkpt lat="42.52666" lon="2.05058">
        <ele>1926.78</ele>
        <time>2019-02-06T11:23:45.238</time>
      </trkpt>
      <trkpt lat="42.52663" lon="2.05058">
        <ele>1925.62</ele>
        <time>2019-02-06T11:23:53.238</time>
      </trkpt>
      <trkpt lat="42.52659" lon="2.05069">
        <ele>1925.26</ele>
        <time>2019-02-06T11:24:01.210</time>
      </trkpt>
      <trkpt lat="42.52655" lon="2.05073">
        <ele>1925.38</ele>
        <time>2019-02-06T11:24:09.210</time>
      </trkpt>
      <trkpt lat="42.52636" lon="2.05091">
        <ele>1924.44</ele>
        <time>2019-02-06T11:24:17.153</time>
      </trkpt>
      <trkpt lat="42.52631" lon="2.05091">
        <ele>1922.98</ele>
        <time>2019-02-06T11:24:25.153</time>
      </trkpt>
      <trkpt lat="42.52625" lon="2.05095">
        <ele>1920.9</ele>
        <time>2019-02-06T11:24:33.153</time>
      </trkpt>
      <trkpt lat="42.52614" lon="2.051">
        <ele>1917.44</ele>
        <time>2019-02-06T11:24:41.92</time>
      </trkpt>
      <trkpt lat="42.52607" lon="2.05101">
        <ele>1913.56</ele>
        <time>2019-02-06T11:24:49.92</time>
      </trkpt>
      <trkpt lat="42.526" lon="2.05101">
        <ele>1910.38</ele>
        <time>2019-02-06T11:24:57.92</time>
      </trkpt>
      <trkpt lat="42.52593" lon="2.051">
        <ele>1908.36</ele>
        <time>2019-02-06T11:25:05.92</time>
      </trkpt>
      <trkpt lat="42.52587" lon="2.051">
        <ele>1906.58</ele>
        <time>2019-02-06T11:25:13.92</time>
      </trkpt>
      <trkpt lat="42.52581" lon="2.05098">
        <ele>1906.04</ele>
        <time>2019-02-06T11:25:21.92</time>
      </trkpt>
      <trkpt lat="42.52581" lon="2.05103">
        <ele>1904.78</ele>
        <time>2019-02-06T11:25:29.92</time>
      </trkpt>
      <trkpt lat="42.52566" lon="2.05096">
        <ele>1903.42</ele>
        <time>2019-02-06T11:25:37.7</time>
      </trkpt>
      <trkpt lat="42.52561" lon="2.05091">
        <ele>1902.32</ele>
        <time>2019-02-06T11:25:47.7</time>
      </trkpt>
      <trkpt lat="42.52544" lon="2.05084">
        <ele>1901.02</ele>
        <time>2019-02-06T11:25:55.21</time>
      </trkpt>
      <trkpt lat="42.52535" lon="2.05078">
        <ele>1899.58</ele>
        <time>2019-02-06T11:26:03.21</time>
      </trkpt>
      <trkpt lat="42.52527" lon="2.0507">
        <ele>1899.06</ele>
        <time>2019-02-06T11:26:11.21</time>
      </trkpt>
      <trkpt lat="42.52519" lon="2.05065">
        <ele>1898.18</ele>
        <time>2019-02-06T11:26:19.21</time>
      </trkpt>
      <trkpt lat="42.52519" lon="2.05068">
        <ele>1896.78</ele>
        <time>2019-02-06T11:26:27.21</time>
      </trkpt>
      <trkpt lat="42.5251" lon="2.05065">
        <ele>1896.26</ele>
        <time>2019-02-06T11:26:37.21</time>
      </trkpt>
      <trkpt lat="42.52503" lon="2.05064">
        <ele>1895.58</ele>
        <time>2019-02-06T11:26:45.21</time>
      </trkpt>
      <trkpt lat="42.52496" lon="2.05065">
        <ele>1894.84</ele>
        <time>2019-02-06T11:26:53.21</time>
      </trkpt>
      <trkpt lat="42.52479" lon="2.05059">
        <ele>1893.62</ele>
        <time>2019-02-06T11:27:01.53</time>
      </trkpt>
      <trkpt lat="42.52473" lon="2.05053">
        <ele>1892.88</ele>
        <time>2019-02-06T11:27:09.53</time>
      </trkpt>
      <trkpt lat="42.52446" lon="2.05052">
        <ele>1891.34</ele>
        <time>2019-02-06T11:27:17.83</time>
      </trkpt>
      <trkpt lat="42.5244" lon="2.05056">
        <ele>1889.72</ele>
        <time>2019-02-06T11:27:25.83</time>
      </trkpt>
      <trkpt lat="42.52434" lon="2.05065">
        <ele>1886.84</ele>
        <time>2019-02-06T11:27:32.994</time>
      </trkpt>
      <trkpt lat="42.52432" lon="2.05064">
        <ele>1884.72</ele>
        <time>2019-02-06T11:27:40.994</time>
      </trkpt>
      <trkpt lat="42.52402" lon="2.05079">
        <ele>1881.76</ele>
        <time>2019-02-06T11:27:51.117</time>
      </trkpt>
      <trkpt lat="42.52396" lon="2.05082">
        <ele>1878.68</ele>
        <time>2019-02-06T11:27:59.117</time>
      </trkpt>
      <trkpt lat="42.52391" lon="2.05086">
        <ele>1875.9</ele>
        <time>2019-02-06T11:28:07.117</time>
      </trkpt>
      <trkpt lat="42.52381" lon="2.05094">
        <ele>1874.34</ele>
        <time>2019-02-06T11:28:14.970</time>
      </trkpt>
      <trkpt lat="42.52378" lon="2.05097">
        <ele>1873</ele>
        <time>2019-02-06T11:28:22.970</time>
      </trkpt>
      <trkpt lat="42.52367" lon="2.05106">
        <ele>1871.86</ele>
        <time>2019-02-06T11:28:30.944</time>
      </trkpt>
      <trkpt lat="42.52368" lon="2.0511">
        <ele>1870.58</ele>
        <time>2019-02-06T11:28:38.944</time>
      </trkpt>
      <trkpt lat="42.52359" lon="2.05123">
        <ele>1868.98</ele>
        <time>2019-02-06T11:28:46.689</time>
      </trkpt>
      <trkpt lat="42.52353" lon="2.05129">
        <ele>1867.32</ele>
        <time>2019-02-06T11:28:54.689</time>
      </trkpt>
      <trkpt lat="42.52347" lon="2.05137">
        <ele>1865.84</ele>
        <time>2019-02-06T11:29:03.689</time>
      </trkpt>
      <trkpt lat="42.52341" lon="2.05142">
        <ele>1864.8</ele>
        <time>2019-02-06T11:29:11.689</time>
      </trkpt>
      <trkpt lat="42.52337" lon="2.05149">
        <ele>1863.98</ele>
        <time>2019-02-06T11:29:19.689</time>
      </trkpt>
      <trkpt lat="42.52334" lon="2.05155">
        <ele>1862.88</ele>
        <time>2019-02-06T11:29:27.689</time>
      </trkpt>
      <trkpt lat="42.52324" lon="2.05175">
        <ele>1861.28</ele>
        <time>2019-02-06T11:29:35.659</time>
      </trkpt>
      <trkpt lat="42.52322" lon="2.05177">
        <ele>1859.58</ele>
        <time>2019-02-06T11:29:43.659</time>
      </trkpt>
      <trkpt lat="42.52313" lon="2.05181">
        <ele>1857.4</ele>
        <time>2019-02-06T11:29:51.633</time>
      </trkpt>
      <trkpt lat="42.52306" lon="2.05184">
        <ele>1855.08</ele>
        <time>2019-02-06T11:29:59.633</time>
      </trkpt>
      <trkpt lat="42.52299" lon="2.05188">
        <ele>1853.32</ele>
        <time>2019-02-06T11:30:07.633</time>
      </trkpt>
      <trkpt lat="42.52295" lon="2.05192">
        <ele>1852.04</ele>
        <time>2019-02-06T11:30:15.633</time>
      </trkpt>
      <trkpt lat="42.52286" lon="2.05201">
        <ele>1850.02</ele>
        <time>2019-02-06T11:30:24.44</time>
      </trkpt>
      <trkpt lat="42.52279" lon="2.05206">
        <ele>1848.54</ele>
        <time>2019-02-06T11:30:32.44</time>
      </trkpt>
      <trkpt lat="42.52272" lon="2.0521">
        <ele>1847.54</ele>
        <time>2019-02-06T11:30:40.44</time>
      </trkpt>
      <trkpt lat="42.52266" lon="2.05215">
        <ele>1846.4</ele>
        <time>2019-02-06T11:30:48.44</time>
      </trkpt>
      <trkpt lat="42.52266" lon="2.05216">
        <ele>1845.68</ele>
        <time>2019-02-06T11:30:56.44</time>
      </trkpt>
      <trkpt lat="42.52261" lon="2.05225">
        <ele>1845.02</ele>
        <time>2019-02-06T11:31:04.175</time>
      </trkpt>
      <trkpt lat="42.52254" lon="2.05226">
        <ele>1844.36</ele>
        <time>2019-02-06T11:31:12.175</time>
      </trkpt>
      <trkpt lat="42.52249" lon="2.05228">
        <ele>1843.48</ele>
        <time>2019-02-06T11:31:20.175</time>
      </trkpt>
      <trkpt lat="42.52241" lon="2.05234">
        <ele>1842.18</ele>
        <time>2019-02-06T11:31:28.183</time>
      </trkpt>
      <trkpt lat="42.52234" lon="2.05236">
        <ele>1840.66</ele>
        <time>2019-02-06T11:31:36.183</time>
      </trkpt>
      <trkpt lat="42.52228" lon="2.05238">
        <ele>1839.52</ele>
        <time>2019-02-06T11:31:44.183</time>
      </trkpt>
      <trkpt lat="42.52222" lon="2.05238">
        <ele>1838.28</ele>
        <time>2019-02-06T11:31:52.183</time>
      </trkpt>
      <trkpt lat="42.52216" lon="2.05239">
        <ele>1837.02</ele>
        <time>2019-02-06T11:32:00.183</time>
      </trkpt>
      <trkpt lat="42.52204" lon="2.05238">
        <ele>1836</ele>
        <time>2019-02-06T11:32:08.246</time>
      </trkpt>
      <trkpt lat="42.52197" lon="2.05237">
        <ele>1835.08</ele>
        <time>2019-02-06T11:32:16.246</time>
      </trkpt>
      <trkpt lat="42.52182" lon="2.05247">
        <ele>1833.48</ele>
        <time>2019-02-06T11:32:24.246</time>
      </trkpt>
      <trkpt lat="42.52176" lon="2.05251">
        <ele>1831.84</ele>
        <time>2019-02-06T11:32:32.246</time>
      </trkpt>
      <trkpt lat="42.52169" lon="2.05254">
        <ele>1830.54</ele>
        <time>2019-02-06T11:32:40.246</time>
      </trkpt>
      <trkpt lat="42.52163" lon="2.05258">
        <ele>1829.68</ele>
        <time>2019-02-06T11:32:48.246</time>
      </trkpt>
      <trkpt lat="42.52156" lon="2.05262">
        <ele>1828.96</ele>
        <time>2019-02-06T11:32:56.246</time>
      </trkpt>
      <trkpt lat="42.52149" lon="2.05266">
        <ele>1828.98</ele>
        <time>2019-02-06T11:33:04.246</time>
      </trkpt>
      <trkpt lat="42.52143" lon="2.05272">
        <ele>1828.88</ele>
        <time>2019-02-06T11:33:12.246</time>
      </trkpt>
      <trkpt lat="42.52137" lon="2.05278">
        <ele>1828.46</ele>
        <time>2019-02-06T11:33:20.246</time>
      </trkpt>
      <trkpt lat="42.52132" lon="2.05285">
        <ele>1827.92</ele>
        <time>2019-02-06T11:33:28.246</time>
      </trkpt>
      <trkpt lat="42.52126" lon="2.0529">
        <ele>1827.12</ele>
        <time>2019-02-06T11:33:36.246</time>
      </trkpt>
      <trkpt lat="42.5212" lon="2.05295">
        <ele>1826.52</ele>
        <time>2019-02-06T11:33:44.246</time>
      </trkpt>
      <trkpt lat="42.52115" lon="2.053">
        <ele>1825.92</ele>
        <time>2019-02-06T11:33:52.246</time>
      </trkpt>
      <trkpt lat="42.5211" lon="2.05308">
        <ele>1825.3</ele>
        <time>2019-02-06T11:34:01.246</time>
      </trkpt>
      <trkpt lat="42.52105" lon="2.05314">
        <ele>1824.62</ele>
        <time>2019-02-06T11:34:09.246</time>
      </trkpt>
      <trkpt lat="42.521" lon="2.0532">
        <ele>1824.22</ele>
        <time>2019-02-06T11:34:17.246</time>
      </trkpt>
      <trkpt lat="42.52095" lon="2.05325">
        <ele>1823.92</ele>
        <time>2019-02-06T11:34:25.246</time>
      </trkpt>
      <trkpt lat="42.52089" lon="2.05328">
        <ele>1824.1</ele>
        <time>2019-02-06T11:34:33.246</time>
      </trkpt>
      <trkpt lat="42.52086" lon="2.05336">
        <ele>1824.12</ele>
        <time>2019-02-06T11:34:41.246</time>
      </trkpt>
      <trkpt lat="42.52082" lon="2.05346">
        <ele>1824.08</ele>
        <time>2019-02-06T11:34:51.246</time>
      </trkpt>
      <trkpt lat="42.52075" lon="2.0536">
        <ele>1823.66</ele>
        <time>2019-02-06T11:34:59.151</time>
      </trkpt>
      <trkpt lat="42.5207" lon="2.05365">
        <ele>1823.24</ele>
        <time>2019-02-06T11:35:07.151</time>
      </trkpt>
      <trkpt lat="42.52064" lon="2.0537">
        <ele>1822.7</ele>
        <time>2019-02-06T11:35:15.151</time>
      </trkpt>
      <trkpt lat="42.52058" lon="2.05375">
        <ele>1822.32</ele>
        <time>2019-02-06T11:35:23.151</time>
      </trkpt>
      <trkpt lat="42.52052" lon="2.0538">
        <ele>1822.5</ele>
        <time>2019-02-06T11:35:32.151</time>
      </trkpt>
      <trkpt lat="42.52045" lon="2.05384">
        <ele>1823.16</ele>
        <time>2019-02-06T11:35:40.151</time>
      </trkpt>
      <trkpt lat="42.5204" lon="2.0539">
        <ele>1823.4</ele>
        <time>2019-02-06T11:35:48.151</time>
      </trkpt>
      <trkpt lat="42.52034" lon="2.05398">
        <ele>1823.36</ele>
        <time>2019-02-06T11:35:56.151</time>
      </trkpt>
      <trkpt lat="42.52029" lon="2.05404">
        <ele>1823.58</ele>
        <time>2019-02-06T11:36:04.151</time>
      </trkpt>
      <trkpt lat="42.52027" lon="2.05411">
        <ele>1823.1</ele>
        <time>2019-02-06T11:36:13.151</time>
      </trkpt>
      <trkpt lat="42.52027" lon="2.05415">
        <ele>1822.04</ele>
        <time>2019-02-06T11:36:21.151</time>
      </trkpt>
      <trkpt lat="42.52019" lon="2.05424">
        <ele>1821.52</ele>
        <time>2019-02-06T11:36:29.316</time>
      </trkpt>
      <trkpt lat="42.52014" lon="2.05429">
        <ele>1821.18</ele>
        <time>2019-02-06T11:36:37.316</time>
      </trkpt>
      <trkpt lat="42.52008" lon="2.05434">
        <ele>1820.68</ele>
        <time>2019-02-06T11:36:45.316</time>
      </trkpt>
      <trkpt lat="42.52003" lon="2.05439">
        <ele>1820.5</ele>
        <time>2019-02-06T11:36:53.316</time>
      </trkpt>
      <trkpt lat="42.51997" lon="2.05445">
        <ele>1820.64</ele>
        <time>2019-02-06T11:37:01.316</time>
      </trkpt>
      <trkpt lat="42.51991" lon="2.0545">
        <ele>1820.68</ele>
        <time>2019-02-06T11:37:09.316</time>
      </trkpt>
      <trkpt lat="42.51986" lon="2.05455">
        <ele>1820.92</ele>
        <time>2019-02-06T11:37:17.316</time>
      </trkpt>
      <trkpt lat="42.5198" lon="2.05461">
        <ele>1821.38</ele>
        <time>2019-02-06T11:37:25.316</time>
      </trkpt>
      <trkpt lat="42.51976" lon="2.05468">
        <ele>1821.86</ele>
        <time>2019-02-06T11:37:33.316</time>
      </trkpt>
      <trkpt lat="42.51971" lon="2.05472">
        <ele>1822.34</ele>
        <time>2019-02-06T11:37:41.316</time>
      </trkpt>
      <trkpt lat="42.51962" lon="2.05479">
        <ele>1823.12</ele>
        <time>2019-02-06T11:37:49.339</time>
      </trkpt>
      <trkpt lat="42.51956" lon="2.05484">
        <ele>1823.88</ele>
        <time>2019-02-06T11:37:57.339</time>
      </trkpt>
      <trkpt lat="42.51948" lon="2.05487">
        <ele>1824.5</ele>
        <time>2019-02-06T11:38:05.339</time>
      </trkpt>
      <trkpt lat="42.51942" lon="2.05492">
        <ele>1825.18</ele>
        <time>2019-02-06T11:38:13.339</time>
      </trkpt>
      <trkpt lat="42.51937" lon="2.05499">
        <ele>1825.9</ele>
        <time>2019-02-06T11:38:21.339</time>
      </trkpt>
      <trkpt lat="42.51934" lon="2.05509">
        <ele>1825.68</ele>
        <time>2019-02-06T11:38:29.339</time>
      </trkpt>
      <trkpt lat="42.51928" lon="2.0552">
        <ele>1824.9</ele>
        <time>2019-02-06T11:38:39.339</time>
      </trkpt>
      <trkpt lat="42.51923" lon="2.05526">
        <ele>1824.04</ele>
        <time>2019-02-06T11:38:47.339</time>
      </trkpt>
      <trkpt lat="42.51919" lon="2.05534">
        <ele>1822.66</ele>
        <time>2019-02-06T11:38:55.339</time>
      </trkpt>
      <trkpt lat="42.51916" lon="2.0554">
        <ele>1821.46</ele>
        <time>2019-02-06T11:39:03.339</time>
      </trkpt>
      <trkpt lat="42.51916" lon="2.05544">
        <ele>1820.78</ele>
        <time>2019-02-06T11:39:11.339</time>
      </trkpt>
      <trkpt lat="42.51945" lon="2.05675">
        <ele>1816.9</ele>
        <time>2019-02-06T11:39:19.191</time>
      </trkpt>
      <trkpt lat="42.51949" lon="2.05683">
        <ele>1813.12</ele>
        <time>2019-02-06T11:39:27.191</time>
      </trkpt>
      <trkpt lat="42.51952" lon="2.05689">
        <ele>1809.64</ele>
        <time>2019-02-06T11:39:35.191</time>
      </trkpt>
      <trkpt lat="42.5196" lon="2.05712">
        <ele>1805.42</ele>
        <time>2019-02-06T11:39:43.157</time>
      </trkpt>
      <trkpt lat="42.51964" lon="2.05718">
        <ele>1800.76</ele>
        <time>2019-02-06T11:39:51.157</time>
      </trkpt>
      <trkpt lat="42.51969" lon="2.05724">
        <ele>1799.74</ele>
        <time>2019-02-06T11:39:59.157</time>
      </trkpt>
      <trkpt lat="42.51973" lon="2.0573">
        <ele>1798.64</ele>
        <time>2019-02-06T11:40:07.157</time>
      </trkpt>
      <trkpt lat="42.51977" lon="2.05737">
        <ele>1797.66</ele>
        <time>2019-02-06T11:40:15.157</time>
      </trkpt>
      <trkpt lat="42.51981" lon="2.05743">
        <ele>1797.42</ele>
        <time>2019-02-06T11:40:23.157</time>
      </trkpt>
      <trkpt lat="42.52019" lon="2.058">
        <ele>1795.5</ele>
        <time>2019-02-06T11:40:31.106</time>
      </trkpt>
      <trkpt lat="42.52022" lon="2.05807">
        <ele>1793.58</ele>
        <time>2019-02-06T11:40:39.106</time>
      </trkpt>
      <trkpt lat="42.52028" lon="2.05818">
        <ele>1791.2</ele>
        <time>2019-02-06T11:40:47.138</time>
      </trkpt>
      <trkpt lat="42.5203" lon="2.05826">
        <ele>1789</ele>
        <time>2019-02-06T11:40:55.138</time>
      </trkpt>
      <trkpt lat="42.52031" lon="2.05834">
        <ele>1786.52</ele>
        <time>2019-02-06T11:41:03.138</time>
      </trkpt>
      <trkpt lat="42.52037" lon="2.05844">
        <ele>1786.1</ele>
        <time>2019-02-06T11:41:11.262</time>
      </trkpt>
      <trkpt lat="42.52042" lon="2.05851">
        <ele>1785.32</ele>
        <time>2019-02-06T11:41:19.262</time>
      </trkpt>
      <trkpt lat="42.52046" lon="2.05859">
        <ele>1785</ele>
        <time>2019-02-06T11:41:27.262</time>
      </trkpt>
      <trkpt lat="42.52049" lon="2.05866">
        <ele>1784.48</ele>
        <time>2019-02-06T11:41:35.262</time>
      </trkpt>
      <trkpt lat="42.52053" lon="2.05872">
        <ele>1783.7</ele>
        <time>2019-02-06T11:41:43.262</time>
      </trkpt>
      <trkpt lat="42.52056" lon="2.05878">
        <ele>1782.5</ele>
        <time>2019-02-06T11:41:51.262</time>
      </trkpt>
      <trkpt lat="42.52023" lon="2.05912">
        <ele>1782.04</ele>
        <time>2019-02-06T11:42:00.393</time>
      </trkpt>
      <trkpt lat="42.52016" lon="2.05909">
        <ele>1781.52</ele>
        <time>2019-02-06T11:42:08.393</time>
      </trkpt>
      <trkpt lat="42.51985" lon="2.05909">
        <ele>1780.78</ele>
        <time>2019-02-06T11:42:16.398</time>
      </trkpt>
      <trkpt lat="42.51979" lon="2.05913">
        <ele>1780.32</ele>
        <time>2019-02-06T11:42:24.398</time>
      </trkpt>
    </trkseg>
  </trk>
</gpx>